M I D A S
Marine Information and Data Acquisition System
Tripno 489 of the Zeeleeuw from 2003-04-10 06:47:10 to 2003-04-10 14:06:13
Back to CruiseResearch ActivitiesStationsMapUnderway DataData graphs

EquipmentUnitsComment
TimeDGPSUTC
LatitudeDGPSDM.mWGS84
LongitudeDGPSDM.mWGS84
TemperatureSBE03/SBE38deg celciusITS90
ConductivitySBE21S/mITS90
SalinitySBE21 Practical Salinity Units
ChlorophylAChelsea fluorimeterg/lCalibrated in Aceton
Missing or incorrect values are displayed as -999
Sea surface data collected by the RV Zeeleeuw from 2003-04-10 06:47:10 to 2003-04-10 14:06:13
                                                                                    Next 1000 lines
Time Latitude Longitude Temperature Conductivity Salinity ChlorophylA
2003-04-10 06:47:18 51°13.6 2°56.1 14.213969 0.031604 0.18499 -0.71383
2003-04-10 06:47:24 51°13.6 2°56.1 14.214145 0.0315 0.184369 -0.71383
2003-04-10 06:47:28 51°13.6 2°56.1 14.214233 0.031604 0.184993 -0.71383
2003-04-10 06:47:34 51°13.6 2°56.1 14.214233 0.031604 0.184993 -0.71383
2003-04-10 06:47:38 51°13.6 2°56.1 14.214409 0.0315 0.184375 -0.71383
2003-04-10 06:47:44 51°13.6 2°56.1 14.214409 0.031604 0.18499 -0.71383
2003-04-10 06:47:48 51°13.6 2°56.1 14.214629 0.031604 0.18499 -0.71383
2003-04-10 06:47:54 51°13.6 2°56.1 14.214409 0.031604 0.184993 -0.74754
2003-04-10 06:47:58 51°13.6 2°56.1 14.214585 0.031604 0.184993 -0.71383
2003-04-10 06:48:04 51°13.6 2°56.1 14.214585 0.031604 0.184993 -0.71383
2003-04-10 06:48:08 51°13.6 2°56.1 14.215201 0.031604 0.18499 -0.71383
2003-04-10 06:48:14 51°13.6 2°56.1 14.215905 0.0315 0.184372 -0.71383
2003-04-10 06:48:18 51°13.6 2°56.1 14.216081 0.0315 0.184369 -0.74754
2003-04-10 06:48:24 51°13.6 2°56.1 14.22145 0.031292 0.183117 -0.71383
2003-04-10 06:48:28 51°13.6 2°56.1 14.218766 0.031396 0.183732 -0.74754
2003-04-10 06:48:34 51°13.6 2°56.1 14.218766 0.031396 0.183732 -0.74754
2003-04-10 06:48:38 51°13.6 2°56.09 14.212164 0.029109 0.170139 -0.74754
2003-04-10 06:48:44 51°13.6 2°56.09 14.215597 0.030668 0.179389 -0.71383
2003-04-10 06:48:48 51°13.6 2°56.08 14.214497 0.031188 0.182497 -0.71383
2003-04-10 06:48:54 51°13.61 2°56.08 14.216829 0.031708 0.185589 -0.74754
2003-04-10 06:48:58 51°13.61 2°56.07 14.217225 0.0315 0.18434 -0.71383
2003-04-10 06:49:04 51°13.61 2°56.07 14.217225 0.0315 0.18434 -0.71383
2003-04-10 06:49:08 51°13.61 2°56.06 14.22035 0.031292 0.183092 -0.71383
2003-04-10 06:49:14 51°13.61 2°56.05 14.219338 0.031396 0.183716 -0.71383
2003-04-10 06:49:18 51°13.61 2°56.05 14.220306 0.031604 0.184967 -0.74754
2003-04-10 06:49:24 51°13.61 2°56.04 14.22035 0.031292 0.183121 -0.74754
2003-04-10 06:49:28 51°13.62 2°56.03 14.21991 0.0315 0.184369 -0.680121
2003-04-10 06:49:34 51°13.62 2°56.02 14.21991 0.0315 0.184369 -0.680121
2003-04-10 06:49:38 51°13.62 2°56.02 14.218986 0.031604 0.185 -0.74754
2003-04-10 06:49:44 51°13.62 2°56.01 14.219338 0.031396 0.183748 -0.71383
2003-04-10 06:49:48 51°13.62 2°56 14.219206 0.031188 0.1825 -0.71383
2003-04-10 06:49:54 51°13.63 2°55.99 14.218678 0.031188 0.182493 -0.71383
2003-04-10 06:49:58 51°13.63 2°55.98 14.21925 0.030876 0.180641 -0.71383
2003-04-10 06:50:04 51°13.63 2°55.97 14.21925 0.030876 0.180641 -0.71383
2003-04-10 06:50:08 51°13.63 2°55.96 14.219338 0.031084 0.181885 -0.74754
2003-04-10 06:50:14 51°13.64 2°55.95 14.21925 0.031188 0.182516 -0.71383
2003-04-10 06:50:18 51°13.64 2°55.95 14.21947 0.031084 0.181904 -0.74754
2003-04-10 06:50:24 51°13.64 2°55.94 14.21903 0.031188 0.182541 -0.74754
2003-04-10 06:50:28 51°13.64 2°55.93 14.219778 0.031084 0.181911 -0.71383
2003-04-10 06:50:34 51°13.65 2°55.92 14.219778 0.031084 0.181911 -0.71383
2003-04-10 06:50:38 51°13.65 2°55.91 14.218986 0.031188 0.182522 -0.71383
2003-04-10 06:50:44 51°13.65 2°55.9 14.219338 0.031292 0.183127 -0.680121
2003-04-10 06:50:48 51°13.65 2°55.9 14.219206 0.031188 0.182503 -0.680121
2003-04-10 06:50:54 51°13.65 2°55.89 14.219646 0.031084 0.181882 -0.74754
2003-04-10 06:50:58 51°13.65 2°55.88 14.21969 0.031084 0.181889 -0.74754
2003-04-10 06:51:04 51°13.66 2°55.88 14.21969 0.031084 0.181889 -0.74754
2003-04-10 06:51:08 51°13.66 2°55.87 14.21969 0.031188 0.182512 -0.74754
2003-04-10 06:51:14 51°13.66 2°55.86 14.219778 0.031292 0.183136 -0.74754
2003-04-10 06:51:18 51°13.66 2°55.85 14.221626 0.031084 0.181898 -0.71383
2003-04-10 06:51:24 51°13.66 2°55.84 14.22167 0.03098 0.181274 -0.680121
2003-04-10 06:51:28 51°13.66 2°55.84 14.22123 0.031084 0.181889 -0.71383
2003-04-10 06:51:34 51°13.67 2°55.83 14.22123 0.031084 0.181889 -0.71383
2003-04-10 06:51:38 51°13.67 2°55.82 14.22101 0.03098 0.181259 -0.71383
2003-04-10 06:51:44 51°13.67 2°55.81 14.221318 0.031084 0.181873 -0.71383
2003-04-10 06:51:48 51°13.67 2°55.8 14.222639 0.030876 0.180648 -0.71383
2003-04-10 06:51:54 51°13.68 2°55.8 14.226071 0.031292 0.183127 -0.74754
2003-04-10 06:51:58 51°13.68 2°55.79 14.224707 0.031396 0.183757 -0.74754
2003-04-10 06:52:04 51°13.68 2°55.79 14.224707 0.031396 0.183757 -0.74754
2003-04-10 06:52:08 51°13.68 2°55.78 14.225939 0.03098 0.181274 -0.71383
2003-04-10 06:52:14 51°13.68 2°55.78 14.225631 0.031188 0.182522 -0.74754
2003-04-10 06:52:18 51°13.68 2°55.78 14.227611 0.031396 0.183776 -0.71383
2003-04-10 06:52:24 51°13.68 2°55.77 14.228447 0.0315 0.184401 -0.71383
2003-04-10 06:52:28 51°13.68 2°55.77 14.225411 0.0315 0.184413 -0.71383
2003-04-10 06:52:34 51°13.68 2°55.77 14.225411 0.0315 0.184413 -0.71383
2003-04-10 06:52:38 51°13.68 2°55.78 14.222771 0.031708 0.185656 -0.71383
2003-04-10 06:52:44 51°13.68 2°55.78 14.219646 0.032124 0.18815 -0.680121
2003-04-10 06:52:48 51°13.68 2°55.78 14.219558 0.031916 0.186916 -0.71383
2003-04-10 06:52:54 51°13.68 2°55.78 14.226291 0.031188 0.182566 -0.74754
2003-04-10 06:52:58 51°13.68 2°55.78 14.227391 0.030357 0.177591 -0.71383
2003-04-10 06:53:04 51°13.68 2°55.79 14.227391 0.030357 0.177591 -0.71383
2003-04-10 06:53:08 51°13.68 2°55.79 14.232892 0.030253 0.176934 -0.74754
2003-04-10 06:53:14 51°13.68 2°55.79 14.232012 0.029837 0.174442 -0.71383
2003-04-10 06:53:18 51°13.68 2°55.79 14.230472 0.030461 0.17814 -0.74754
2003-04-10 06:53:24 51°13.68 2°55.78 14.23012 0.029837 0.174436 -0.71383
2003-04-10 06:53:28 51°13.68 2°55.78 14.233772 0.029941 0.175046 -0.71383
2003-04-10 06:53:34 51°13.68 2°55.78 14.233772 0.029941 0.175046 -0.71383
2003-04-10 06:53:38 51°13.68 2°55.78 14.237028 0.030357 0.177526 -0.680121
2003-04-10 06:53:44 51°13.68 2°55.77 14.235708 0.030357 0.177529 -0.680121
2003-04-10 06:53:48 51°13.68 2°55.77 14.2343 0.029629 0.173213 -0.71383
2003-04-10 06:53:54 51°13.68 2°55.76 14.231308 0.03098 0.181252 -0.71383
2003-04-10 06:53:58 51°13.68 2°55.76 14.23034 0.031188 0.182497 -0.680121
2003-04-10 06:54:04 51°13.68 2°55.76 14.23034 0.031188 0.182497 -0.680121
2003-04-10 06:54:08 51°13.68 2°55.76 14.232408 0.030668 0.179407 -0.71383
2003-04-10 06:54:14 51°13.68 2°55.76 14.227831 0.031396 0.183745 -0.71383
2003-04-10 06:54:18 51°13.68 2°55.76 14.227963 0.031396 0.183754 -0.74754
2003-04-10 06:54:24 51°13.68 2°55.76 14.229548 0.030772 0.180043 -0.680121
2003-04-10 06:54:28 51°13.68 2°55.76 14.226951 0.031396 0.18377 -0.71383
2003-04-10 06:54:34 51°13.68 2°55.76 14.226951 0.031396 0.18377 -0.71383
2003-04-10 06:54:38 51°13.68 2°55.76 14.227039 0.0315 0.184407 -0.71383
2003-04-10 06:54:44 51°13.68 2°55.76 14.225235 0.031292 0.183174 -0.781249
2003-04-10 06:54:48 51°13.69 2°55.76 14.225851 0.0315 0.184413 -0.74754
2003-04-10 06:54:54 51°13.69 2°55.76 14.225147 0.031604 0.185041 -0.74754
2003-04-10 06:54:58 51°13.69 2°55.77 14.221979 0.0315 0.184413 -0.680121
2003-04-10 06:55:04 51°13.7 2°55.77 14.221979 0.0315 0.184413 -0.680121
2003-04-10 06:55:08 51°13.7 2°55.77 14.223827 0.031396 0.18378 -0.71383
2003-04-10 06:55:14 51°13.7 2°55.77 14.224751 0.031188 0.182531 -0.71383
2003-04-10 06:55:18 51°13.71 2°55.77 14.224487 0.031292 0.183143 -0.74754
2003-04-10 06:55:24 51°13.71 2°55.77 14.225675 0.031188 0.182525 -0.74754
2003-04-10 06:55:28 51°13.71 2°55.76 14.226291 0.031084 0.181904 -0.74754
2003-04-10 06:55:34 51°13.72 2°55.76 14.226291 0.031084 0.181904 -0.74754
2003-04-10 06:55:38 51°13.72 2°55.76 14.226423 0.03098 0.181284 -0.71383
2003-04-10 06:55:44 51°13.73 2°55.75 14.227039 0.03098 0.181281 -0.74754
2003-04-10 06:55:48 51°13.73 2°55.75 14.227479 0.030149 0.176333 -0.71383
2003-04-10 06:55:54 51°13.73 2°55.75 14.234564 0.029317 0.171372 -0.71383
2003-04-10 06:55:58 51°13.74 2°55.74 14.235752 0.029213 0.170739 -0.71383
2003-04-10 06:56:04 51°13.74 2°55.74 14.235752 0.029213 0.170739 -0.71383
2003-04-10 06:56:08 51°13.75 2°55.73 14.233332 0.029317 0.171349 -0.71383
2003-04-10 06:56:14 51°13.75 2°55.72 14.232232 0.029421 0.171961 -0.71383
2003-04-10 06:56:18 51°13.76 2°55.72 14.235532 0.029005 0.169497 -0.71383
2003-04-10 06:56:24 51°13.76 2°55.71 14.23738 0.029005 0.169503 -0.74754
2003-04-10 06:56:28 51°13.77 2°55.7 14.242747 0.028798 0.168273 -0.71383
2003-04-10 06:56:34 51°13.78 2°55.69 14.242747 0.028798 0.168273 -0.71383
2003-04-10 06:56:38 51°13.78 2°55.69 14.242659 0.028694 0.167656 -0.74754
2003-04-10 06:56:44 51°13.79 2°55.67 14.241867 0.02859 0.167041 -0.71383
2003-04-10 06:56:48 51°13.79 2°55.67 14.239184 0.028382 0.165809 -0.71383
2003-04-10 06:56:54 51°13.8 2°55.66 14.231748 0.028382 0.165804 -0.680121
2003-04-10 06:56:58 51°13.81 2°55.65 14.231968 0.02807 0.163958 -0.680121
2003-04-10 06:57:04 51°13.82 2°55.64 14.231968 0.02807 0.163958 -0.680121
2003-04-10 06:57:08 51°13.82 2°55.64 14.21771 0.028382 0.165801 -0.71383
2003-04-10 06:57:14 51°13.83 2°55.63 14.20785 0.028694 0.167653 -0.74754
2003-04-10 06:57:18 51°13.84 2°55.62 14.217578 0.028694 0.167661 -0.71383
2003-04-10 06:57:24 51°13.85 2°55.61 14.217137 0.02859 0.167053 -0.71383
2003-04-10 06:57:28 51°13.86 2°55.61 14.223387 0.028382 0.165826 -0.71383
2003-04-10 06:57:34 51°13.87 2°55.6 14.223387 0.028382 0.165826 -0.71383
2003-04-10 06:57:38 51°13.88 2°55.59 14.225367 0.029005 0.169521 -0.71383
2003-04-10 06:57:44 51°13.89 2°55.58 14.230868 0.028798 0.168299 -0.71383
2003-04-10 06:57:48 51°13.9 2°55.58 14.233728 0.028901 0.16892 -0.71383
2003-04-10 06:57:54 51°13.91 2°55.57 14.23386 0.028694 0.167687 -0.71383
2003-04-10 06:57:58 51°13.91 2°55.56 14.236368 0.02859 0.16707 -0.74754
2003-04-10 06:58:04 51°13.93 2°55.56 14.236368 0.02859 0.16707 -0.74754
2003-04-10 06:58:08 51°13.93 2°55.55 14.237908 0.028694 0.16769 -0.71383
2003-04-10 06:58:14 51°13.95 2°55.54 14.237952 0.028694 0.167687 -0.71383
2003-04-10 06:58:18 51°13.96 2°55.54 14.243451 0.028486 0.166455 -0.71383
2003-04-10 06:58:24 51°13.97 2°55.53 14.242483 0.028798 0.168308 -0.74754
2003-04-10 06:58:28 51°13.98 2°55.52 14.244155 0.028486 0.166455 -0.71383
2003-04-10 06:58:34 51°13.99 2°55.51 14.244155 0.028486 0.166455 -0.71383
2003-04-10 06:58:38 51°14 2°55.51 14.244331 0.029005 0.169538 -0.71383
2003-04-10 06:58:44 51°14.01 2°55.5 14.245475 0.028382 0.165849 -0.74754
2003-04-10 06:58:48 51°14.02 2°55.49 14.243935 0.028486 0.166464 -0.680121
2003-04-10 06:58:54 51°14.03 2°55.48 -999 0.028382 0.165846 -0.680121
2003-04-10 06:58:58 51°14.04 2°55.48 -999 0.028486 0.166458 -0.680121
2003-04-10 06:59:04 51°14.05 2°55.47 -999 0.028486 0.166458 -0.680121
2003-04-10 06:59:08 51°14.06 2°55.46 -999 0.028798 0.168308 -0.71383
2003-04-10 06:59:14 51°14.07 2°55.46 -999 0.029421 0.172012 -0.71383
2003-04-10 06:59:18 51°14.08 2°55.45 -999 0.029109 0.170168 -0.74754
2003-04-10 06:59:24 51°14.09 2°55.44 -999 0.028486 0.166478 -0.71383
2003-04-10 06:59:28 51°14.1 2°55.44 -999 0.028694 0.167707 -0.74754
2003-04-10 06:59:34 51°14.11 2°55.43 -999 0.028694 0.167707 -0.74754
2003-04-10 06:59:38 51°14.12 2°55.42 -999 0.029213 0.170789 -0.71383
2003-04-10 06:59:44 51°14.14 2°55.41 -999 0.029109 0.170185 -0.71383
2003-04-10 06:59:48 51°14.14 2°55.4 -999 0.028694 0.167728 -0.74754
2003-04-10 06:59:54 51°14.16 2°55.39 -999 0.029629 0.173279 -0.71383
2003-04-10 06:59:58 51°14.16 2°55.39 -999 0.028901 0.168972 -0.74754
2003-04-10 07:00:04 51°14.18 2°55.37 -999 0.028901 0.168972 -0.74754
2003-04-10 07:00:08 51°14.18 2°55.37 -999 0.028486 0.166518 -0.74754
2003-04-10 07:00:14 51°14.2 2°55.35 -999 0.029941 0.175155 -0.71383
2003-04-10 07:00:18 51°14.2 2°55.34 -999 0.029213 0.170845 -0.71383
2003-04-10 07:00:24 51°14.21 2°55.33 -999 0.028798 0.168389 -0.71383
2003-04-10 07:00:28 51°14.22 2°55.32 -999 0.029005 0.16962 -0.71383
2003-04-10 07:00:34 51°14.23 2°55.31 -999 0.029005 0.16962 -0.71383
2003-04-10 07:00:38 51°14.24 2°55.3 -999 0.030357 0.177643 -0.74754
2003-04-10 07:00:44 51°14.25 2°55.28 -999 0.030045 0.175798 -0.71383
2003-04-10 07:00:48 51°14.26 2°55.27 -999 0.029525 0.172725 -0.71383
2003-04-10 07:00:54 51°14.27 2°55.25 -999 0.028901 0.169016 -0.74754
2003-04-10 07:00:58 51°14.28 2°55.23 -999 0.029421 0.172091 -0.74754
2003-04-10 07:01:04 51°14.29 2°55.21 -999 0.029421 0.172091 -0.74754
2003-04-10 07:01:08 51°14.29 2°55.2 -999 0.028486 0.166538 -0.71383
2003-04-10 07:01:14 51°14.3 2°55.18 -999 0.02807 0.164065 -0.71383
2003-04-10 07:01:18 51°14.31 2°55.17 -999 0.028798 0.168366 -0.74754
2003-04-10 07:01:24 51°14.32 2°55.14 -999 0.02807 0.164062 -0.74754
2003-04-10 07:01:28 51°14.33 2°55.13 -999 0.028174 0.164679 -0.680121
2003-04-10 07:01:34 51°14.34 2°55.11 -999 0.028174 0.164679 -0.680121
2003-04-10 07:01:38 51°14.34 2°55.09 -999 0.029005 0.169614 -0.74754
2003-04-10 07:01:44 51°14.35 2°55.07 -999 0.029213 0.170883 -0.71383
2003-04-10 07:01:48 51°14.36 2°55.06 -999 0.031188 0.182686 -0.71383
2003-04-10 07:01:54 51°14.37 2°55.04 -999 0.029629 0.173434 -0.74754
2003-04-10 07:01:58 51°14.38 2°55.02 -999 0.028901 0.169054 -0.74754
2003-04-10 07:02:04 51°14.39 2°55 -999 0.028901 0.169054 -0.74754
2003-04-10 07:02:08 51°14.4 2°54.99 -999 0.029213 0.170883 -0.71383
2003-04-10 07:02:14 51°14.41 2°54.97 -999 0.029629 0.173336 -0.74754
2003-04-10 07:02:18 51°14.42 2°54.96 -999 0.036074 0.211882 -0.74754
2003-04-10 07:02:24 51°14.44 2°54.95 -999 0.037009 0.217385 -0.74754
2003-04-10 07:02:28 51°14.45 2°54.94 -999 0.037009 0.217274 -0.74754
2003-04-10 07:02:34 51°14.46 2°54.92 -999 0.037009 0.217274 -0.74754
2003-04-10 07:02:38 51°14.47 2°54.91 -999 0.033995 0.199227 -0.71383
2003-04-10 07:02:44 51°14.49 2°54.9 -999 0.036801 0.216013 -0.71383
2003-04-10 07:02:48 51°14.5 2°54.89 -999 0.031812 0.186223 -0.71383
2003-04-10 07:02:54 51°14.51 2°54.88 -999 0.034722 0.203571 -0.71383
2003-04-10 07:02:58 51°14.53 2°54.87 -999 0.034306 0.201152 -0.71383
2003-04-10 07:03:04 51°14.54 2°54.85 -999 0.034306 0.201152 -0.71383
2003-04-10 07:03:08 51°14.55 2°54.84 -999 0.031916 0.186955 -0.71383
2003-04-10 07:03:14 51°14.57 2°54.83 -999 0.037529 0.220557 -0.71383
2003-04-10 07:03:18 51°14.58 2°54.82 -999 0.03493 0.20514 -0.71383
2003-04-10 07:03:24 51°14.6 2°54.8 -999 0.032643 0.191448 -0.680121
2003-04-10 07:03:28 51°14.61 2°54.79 -999 0.032436 0.190231 -0.74754
2003-04-10 07:03:34 51°14.63 2°54.78 -999 0.032436 0.190231 -0.74754
2003-04-10 07:03:38 51°14.64 2°54.77 -999 0.03441 0.202644 -0.71383
2003-04-10 07:03:44 51°14.65 2°54.75 -999 0.031084 0.182663 -0.71383
2003-04-10 07:03:48 51°14.67 2°54.74 -999 0.035138 0.206983 -0.71383
2003-04-10 07:03:54 51°14.68 2°54.73 -999 0.03202 0.188332 -0.71383
2003-04-10 07:03:58 51°14.69 2°54.72 -999 0.031708 0.186312 -0.71383
2003-04-10 07:04:04 51°14.71 2°54.7 -999 0.031708 0.186312 -0.71383
2003-04-10 07:04:08 51°14.72 2°54.69 -999 0.030668 0.180305 -0.71383
2003-04-10 07:04:14 51°14.74 2°54.67 -999 0.03202 0.188411 -0.71383
2003-04-10 07:04:18 51°14.75 2°54.66 -999 0.031084 0.182574 -0.74754
2003-04-10 07:04:24 51°14.77 2°54.65 -999 0.032747 0.192329 -0.71383
2003-04-10 07:04:28 51°14.78 2°54.64 -999 0.033891 0.199145 -0.74754
2003-04-10 07:04:34 51°14.8 2°54.62 -999 0.033891 0.199145 -0.74754
2003-04-10 07:04:38 51°14.81 2°54.61 -999 0.035866 0.211099 -0.71383
2003-04-10 07:04:44 51°14.83 2°54.59 -999 0.031396 0.18455 -0.71383
2003-04-10 07:04:48 51°14.84 2°54.58 -999 0.031084 0.182759 -0.74754
2003-04-10 07:04:54 51°14.86 2°54.56 -999 0.033475 0.197099 -0.71383
2003-04-10 07:04:58 51°14.87 2°54.55 -999 0.033267 0.195997 -0.71383
2003-04-10 07:05:04 51°14.89 2°54.54 -999 0.033267 0.195997 -0.71383
2003-04-10 07:05:08 51°14.9 2°54.53 -999 0.033371 0.197092 -0.71383
2003-04-10 07:05:14 51°14.92 2°54.51 -999 0.036178 0.214051 -0.71383
2003-04-10 07:05:18 51°14.93 2°54.5 -999 0.031708 0.187066 -0.680121
2003-04-10 07:05:24 51°14.94 2°54.48 -999 0.036074 0.213443 -0.74754
2003-04-10 07:05:28 51°14.96 2°54.47 -999 0.033371 0.197248 -0.680121
2003-04-10 07:05:34 51°14.97 2°54.45 -999 0.033371 0.197248 -0.680121
2003-04-10 07:05:38 51°14.99 2°54.44 -999 0.037113 0.219601 -0.71383
2003-04-10 07:05:44 51°15 2°54.43 -999 0.032436 0.191298 -0.71383
2003-04-10 07:05:48 51°15.01 2°54.42 -999 0.038776 0.229282 -0.71383
2003-04-10 07:05:54 51°15.03 2°54.4 -999 0.037009 0.218387 -0.71383
2003-04-10 07:05:58 51°15.04 2°54.39 -999 0.036385 0.214558 -0.71383
2003-04-10 07:06:04 51°15.06 2°54.37 -999 0.036385 0.214558 -0.71383
2003-04-10 07:06:08 51°15.07 2°54.36 -999 0.033267 0.195915 -0.74754
2003-04-10 07:06:14 51°15.09 2°54.34 -999 0.032747 0.192986 -0.74754
2003-04-10 07:06:18 51°15.1 2°54.33 -999 0.035242 0.208139 -0.74754
2003-04-10 07:06:24 51°15.12 2°54.31 -999 0.037321 0.220814 -0.71383
2003-04-10 07:06:28 51°15.13 2°54.3 -999 0.033683 0.198834 -0.74754
2003-04-10 07:06:34 51°15.15 2°54.29 -999 0.033683 0.198834 -0.74754
2003-04-10 07:06:38 51°15.16 2°54.27 -999 0.03836 0.226828 -0.71383
2003-04-10 07:06:44 51°15.18 2°54.26 -999 0.038153 0.225388 -0.74754
2003-04-10 07:06:48 51°15.19 2°54.24 -999 0.032332 0.190188 -0.74754
2003-04-10 07:06:54 51°15.21 2°54.23 -999 0.036282 0.213978 -0.71383
2003-04-10 07:06:58 51°15.22 2°54.21 -999 0.037945 0.224216 -0.74754
2003-04-10 07:07:04 51°15.24 2°54.19 -999 0.037945 0.224216 -0.74754
2003-04-10 07:07:08 51°15.25 2°54.18 -999 0.032436 0.191204 -0.71383
2003-04-10 07:07:14 51°15.27 2°54.16 -999 0.042207 0.250741 -0.71383
2003-04-10 07:07:18 51°15.28 2°54.15 -999 0.036178 0.213782 -0.71383
2003-04-10 07:07:24 51°15.3 2°54.13 -999 0.035554 0.210081 -0.71383
2003-04-10 07:07:28 51°15.31 2°54.11 -999 0.042311 0.250911 -0.680121
2003-04-10 07:07:34 51°15.33 2°54.09 -999 0.042311 0.250911 -0.680121
2003-04-10 07:07:38 51°15.34 2°54.08 -999 0.041895 0.248753 -0.71383
2003-04-10 07:07:44 51°15.36 2°54.06 -999 0.035762 0.211514 -0.71383
2003-04-10 07:07:48 51°15.37 2°54.04 -999 0.035138 0.207932 -0.680121
2003-04-10 07:07:54 51°15.39 2°54.02 -999 0.043142 0.256798 -0.680121
2003-04-10 07:07:58 51°15.4 2°54.01 -999 0.037529 0.222661 -0.71383
2003-04-10 07:08:04 51°15.42 2°53.99 -999 0.037529 0.222661 -0.71383
2003-04-10 07:08:08 51°15.43 2°53.98 -999 0.037009 0.219323 -0.74754
2003-04-10 07:08:14 51°15.45 2°53.96 -999 0.036074 0.214142 -0.71383
2003-04-10 07:08:18 51°15.47 2°53.94 -999 0.035242 0.209757 -0.71383
2003-04-10 07:08:24 51°15.49 2°53.92 -999 0.034722 0.206047 -0.74754
2003-04-10 07:08:28 51°15.5 2°53.91 -999 0.041167 0.245024 -0.74754
2003-04-10 07:08:34 51°15.52 2°53.89 -999 0.041167 0.245024 -0.74754
2003-04-10 07:08:38 51°15.53 2°53.87 -999 0.033995 0.201484 -0.71383
2003-04-10 07:08:44 51°15.55 2°53.85 -999 0.043558 0.259966 -0.680121
2003-04-10 07:08:48 51°15.56 2°53.84 -999 0.036385 0.21614 -0.71383
2003-04-10 07:08:54 51°15.58 2°53.82 -999 0.035554 0.211177 -0.74754
2003-04-10 07:08:58 51°15.59 2°53.8 -999 0.034099 0.202482 -0.680121
2003-04-10 07:09:04 51°15.61 2°53.78 -999 0.034099 0.202482 -0.680121
2003-04-10 07:09:08 51°15.63 2°53.77 -999 0.035346 0.210164 -0.71383
2003-04-10 07:09:14 51°15.64 2°53.75 -999 0.034307 0.203882 -0.71383
2003-04-10 07:09:18 51°15.66 2°53.74 -999 0.037737 0.224459 -0.71383
2003-04-10 07:09:24 51°15.68 2°53.72 -999 0.035554 0.211135 -0.680121
2003-04-10 07:09:28 51°15.69 2°53.7 -999 0.038984 0.232076 -0.71383
2003-04-10 07:09:34 51°15.71 2°53.68 -999 0.038984 0.232076 -0.71383
2003-04-10 07:09:38 51°15.72 2°53.67 -999 0.039608 0.236145 -0.71383
2003-04-10 07:09:44 51°15.74 2°53.65 -999 0.035034 0.20832 -0.71383
2003-04-10 07:09:48 51°15.75 2°53.63 -999 0.036801 0.219 -0.71383
2003-04-10 07:09:54 51°15.77 2°53.61 -999 0.034411 0.204396 -0.680121
2003-04-10 07:09:58 51°15.79 2°53.6 -999 0.033995 0.201853 -0.71383
2003-04-10 07:10:04 51°15.8 2°53.58 -999 0.033995 0.201853 -0.71383
2003-04-10 07:10:08 51°15.82 2°53.56 -999 0.038049 0.226547 -0.71383
2003-04-10 07:10:14 51°15.84 2°53.54 -999 0.035138 0.208898 -0.71383
2003-04-10 07:10:18 51°15.85 2°53.53 -999 0.033995 0.201767 -0.680121
2003-04-10 07:10:24 51°15.87 2°53.51 -999 0.033995 0.201706 -0.74754
2003-04-10 07:10:28 51°15.88 2°53.49 -999 0.035554 0.211147 -0.680121
2003-04-10 07:10:34 51°15.9 2°53.47 -999 0.035554 0.211147 -0.680121
2003-04-10 07:10:38 51°15.91 2°53.46 -999 0.033995 0.201763 -0.71383
2003-04-10 07:10:44 51°15.93 2°53.44 -999 0.031084 0.184256 -0.74754
2003-04-10 07:10:48 51°15.95 2°53.42 -999 0.034826 0.206992 -0.71383
2003-04-10 07:10:54 51°15.97 2°53.4 -999 0.036385 0.216511 -0.680121
2003-04-10 07:10:58 51°15.98 2°53.39 -999 0.032747 0.194517 -0.71383
2003-04-10 07:11:04 51°16 2°53.37 -999 0.032747 0.194517 -0.71383
2003-04-10 07:11:08 51°16.01 2°53.36 -999 0.035554 0.211584 -0.71383
2003-04-10 07:11:14 51°16.03 2°53.34 -999 0.035554 0.211516 -0.71383
2003-04-10 07:11:18 51°16.04 2°53.32 -999 0.033475 0.198857 -0.71383
2003-04-10 07:11:24 51°16.06 2°53.3 -999 0.035554 0.211418 -0.680121
2003-04-10 07:11:28 51°16.08 2°53.29 -999 0.041167 0.245669 -0.71383
2003-04-10 07:11:34 51°16.1 2°53.27 -999 0.041167 0.245669 -0.71383
2003-04-10 07:11:38 51°16.11 2°53.26 -999 0.034307 0.203842 -0.71383
2003-04-10 07:11:44 51°16.13 2°53.24 -999 0.042519 0.253918 -0.71383
2003-04-10 07:11:48 51°16.14 2°53.23 -999 0.03888 0.231593 -0.71383
2003-04-10 07:11:54 51°16.16 2°53.21 -999 0.036489 0.216922 -0.680121
2003-04-10 07:11:58 51°16.18 2°53.2 -999 0.038984 0.231997 -0.71383
2003-04-10 07:12:04 51°16.2 2°53.18 -999 0.038984 0.231997 -0.71383
2003-04-10 07:12:08 51°16.21 2°53.17 -999 0.038049 0.226307 -0.71383
2003-04-10 07:12:14 51°16.23 2°53.15 -999 0.041687 0.248768 -0.71383
2003-04-10 07:12:18 51°16.25 2°53.14 -999 0.035658 0.211867 -0.71383
2003-04-10 07:12:24 51°16.27 2°53.12 -999 0.037633 0.223859 -0.71383
2003-04-10 07:12:28 51°16.28 2°53.11 -999 0.033787 0.200591 -0.680121
2003-04-10 07:12:34 51°16.3 2°53.09 -999 0.033787 0.200591 -0.680121
2003-04-10 07:12:38 51°16.32 2°53.08 -999 0.037113 0.220928 -0.71383
2003-04-10 07:12:44 51°16.34 2°53.06 -999 0.035138 0.208973 -0.71383
2003-04-10 07:12:48 51°16.35 2°53.05 -999 0.033683 0.200311 -0.680121
2003-04-10 07:12:54 51°16.37 2°53.03 -999 0.040959 0.244556 -0.71383
2003-04-10 07:12:58 51°16.39 2°53.02 -999 0.041479 0.247407 -0.71383
2003-04-10 07:13:04 51°16.41 2°53.01 -999 0.041479 0.247407 -0.71383
2003-04-10 07:13:08 51°16.42 2°52.99 -999 0.038361 0.228389 -0.71383
2003-04-10 07:13:14 51°16.44 2°52.98 -999 0.033579 0.199479 -0.71383
2003-04-10 07:13:18 51°16.45 2°52.97 -999 0.043038 0.257369 -0.680121
2003-04-10 07:13:24 51°16.47 2°52.95 -999 0.039088 0.233179 -0.680121
2003-04-10 07:13:28 51°16.49 2°52.94 -999 0.033059 0.196414 -0.71383
2003-04-10 07:13:34 51°16.51 2°52.92 -999 0.033059 0.196414 -0.71383
2003-04-10 07:13:38 51°16.52 2°52.91 -999 0.033995 0.202104 -0.74754
2003-04-10 07:13:44 51°16.54 2°52.89 -999 0.033475 0.199101 -0.680121
2003-04-10 07:13:48 51°16.56 2°52.88 -999 0.039192 0.233994 -0.71383
2003-04-10 07:13:54 51°16.58 2°52.87 -999 0.041063 0.245409 -0.71383
2003-04-10 07:13:58 51°16.59 2°52.86 -999 0.032747 0.19461 -0.71383
2003-04-10 07:14:04 51°16.61 2°52.84 -999 0.032747 0.19461 -0.71383
2003-04-10 07:14:08 51°16.62 2°52.83 -999 0.03597 0.214176 -0.71383
2003-04-10 07:14:14 51°16.64 2°52.81 -999 0.033475 0.19926 -0.680121
2003-04-10 07:14:18 51°16.66 2°52.8 -999 0.041063 0.245609 -0.74754
2003-04-10 07:14:24 51°16.68 2°52.78 -999 0.036074 0.21507 -0.71383
2003-04-10 07:14:28 51°16.69 2°52.77 -999 0.03992 0.238616 -0.71383
2003-04-10 07:14:34 51°16.71 2°52.76 -999 0.03992 0.238616 -0.71383
2003-04-10 07:14:38 51°16.73 2°52.75 -999 0.036593 0.218518 -0.680121
2003-04-10 07:14:44 51°16.75 2°52.73 -999 0.037841 0.226112 -0.71383
2003-04-10 07:14:48 51°16.76 2°52.72 -999 0.042727 0.255831 -0.74754
2003-04-10 07:14:54 51°16.78 2°52.71 -999 0.034826 0.207354 -0.71383
2003-04-10 07:14:58 51°16.8 2°52.7 -999 0.041167 0.246153 -0.71383
2003-04-10 07:15:04 51°16.82 2°52.68 -999 0.041167 0.246153 -0.71383
2003-04-10 07:15:08 51°16.83 2°52.67 -999 0.034307 0.204446 -0.71383
2003-04-10 07:15:14 51°16.85 2°52.66 -999 0.036697 0.219152 -0.74754
2003-04-10 07:15:18 51°16.87 2°52.65 -999 0.033891 0.202057 -0.71383
2003-04-10 07:15:24 51°16.89 2°52.64 -999 0.034099 0.203336 -0.74754
2003-04-10 07:15:28 51°16.91 2°52.63 -999 0.033267 0.198162 -0.680121
2003-04-10 07:15:34 51°16.93 2°52.62 -999 0.033267 0.198162 -0.680121
2003-04-10 07:15:38 51°16.94 2°52.61 -999 0.034203 0.203818 -0.71383
2003-04-10 07:15:44 51°16.97 2°52.6 -999 0.034722 0.207089 -0.71383
2003-04-10 07:15:48 51°16.98 2°52.59 -999 0.033891 0.202082 -0.680121
2003-04-10 07:15:54 51°17 2°52.58 -999 0.035138 0.209752 -0.74754
2003-04-10 07:15:58 51°17.02 2°52.57 -999 0.041895 0.251115 -0.74754
2003-04-10 07:16:04 51°17.04 2°52.56 -999 0.041895 0.251115 -0.74754
2003-04-10 07:16:08 51°17.06 2°52.56 -999 0.036178 0.216168 -0.71383
2003-04-10 07:16:14 51°17.08 2°52.55 -999 0.034722 0.20736 -0.71383
2003-04-10 07:16:18 51°17.1 2°52.54 -999 0.036801 0.219977 -0.71383
2003-04-10 07:16:24 51°17.12 2°52.54 -999 0.037633 0.225016 -0.680121
2003-04-10 07:16:28 51°17.13 2°52.53 -999 0.037425 0.22364 -0.680121
2003-04-10 07:16:34 51°17.16 2°52.53 -999 0.037425 0.22364 -0.680121
2003-04-10 07:16:38 51°17.17 2°52.52 -999 0.044598 0.267607 -0.71383
2003-04-10 07:16:44 51°17.2 2°52.52 -999 0.037113 0.221902 -0.71383
2003-04-10 07:16:48 51°17.21 2°52.51 -999 0.040647 0.243492 -0.71383
2003-04-10 07:16:54 51°17.24 2°52.51 -999 0.039088 0.233988 -0.71383
2003-04-10 07:16:58 51°17.25 2°52.5 -999 0.033683 0.200887 -0.71383
2003-04-10 07:17:04 51°17.27 2°52.5 -999 0.033683 0.200887 -0.71383
2003-04-10 07:17:08 51°17.29 2°52.49 -999 0.03992 0.239031 -0.71383
2003-04-10 07:17:14 51°17.31 2°52.49 -999 0.033267 0.198321 -0.71383
2003-04-10 07:17:18 51°17.33 2°52.48 -999 0.033787 0.201512 -0.71383
2003-04-10 07:17:24 51°17.35 2°52.48 -999 0.033475 0.199605 -0.71383
2003-04-10 07:17:28 51°17.37 2°52.47 -999 0.039816 0.238342 -0.71383
2003-04-10 07:17:34 51°17.39 2°52.47 -999 0.039816 0.238342 -0.71383
2003-04-10 07:17:38 51°17.41 2°52.46 -999 0.033059 0.197125 -0.71383
2003-04-10 07:17:44 51°17.43 2°52.46 -999 0.03254 0.194103 -0.71383
2003-04-10 07:17:48 51°17.45 2°52.45 -999 0.036178 0.216503 -0.680121
2003-04-10 07:17:54 51°17.47 2°52.45 -999 0.038465 0.230612 -0.71383
2003-04-10 07:17:58 51°17.49 2°52.44 -999 0.033475 0.199995 -0.71383
2003-04-10 07:18:04 51°17.51 2°52.44 -999 0.033475 0.199995 -0.71383
2003-04-10 07:18:08 51°17.53 2°52.43 -999 0.037009 0.221479 -0.71383
2003-04-10 07:18:14 51°17.55 2°52.43 -999 0.035658 0.213172 -0.74754
2003-04-10 07:18:18 51°17.57 2°52.43 -999 0.033787 0.201746 -0.74754
2003-04-10 07:18:24 51°17.59 2°52.42 -999 0.034411 0.205589 -0.71383
2003-04-10 07:18:28 51°17.6 2°52.42 -999 0.038465 0.230383 -0.680121
2003-04-10 07:18:34 51°17.63 2°52.41 -999 0.038465 0.230383 -0.680121
2003-04-10 07:18:38 51°17.64 2°52.41 -999 0.040544 0.243136 -0.71383
2003-04-10 07:18:44 51°17.67 2°52.41 -999 0.04439 0.266763 -0.71383
2003-04-10 07:18:48 51°17.68 2°52.41 -999 0.037529 0.224595 -0.680121
2003-04-10 07:18:54 51°17.71 2°52.4 -999 0.037529 0.224643 -0.71383
2003-04-10 07:18:58 51°17.72 2°52.4 -999 0.032332 0.192878 -0.71383
2003-04-10 07:19:04 51°17.75 2°52.4 -999 0.032332 0.192878 -0.71383
2003-04-10 07:19:08 51°17.76 2°52.4 -999 0.036178 0.216343 -0.74754
2003-04-10 07:19:14 51°17.79 2°52.4 -999 0.040855 0.245244 -0.71383
2003-04-10 07:19:18 51°17.8 2°52.4 -999 0.034411 0.205759 -0.74754
2003-04-10 07:19:24 51°17.83 2°52.4 -999 0.03597 0.21536 -0.612702
2003-04-10 07:19:28 51°17.84 2°52.4 -999 1.663344 12.348803 -0.612702
2003-04-10 07:19:34 51°17.87 2°52.4 -999 1.663344 12.348803 -0.612702
2003-04-10 07:19:38 51°17.88 2°52.4 -999 1.55721 11.488401 6.735947
2003-04-10 07:19:44 51°17.91 2°52.4 -999 3.035332 23.369817 8.994477
2003-04-10 07:19:48 51°17.92 2°52.4 -999 3.163244 24.68168 10.241725
2003-04-10 07:19:54 51°17.95 2°52.41 -999 3.272983 26.814471 13.140734
2003-04-10 07:19:58 51°17.96 2°52.41 -999 3.319863 28.30216 16.343127
2003-04-10 07:20:04 51°17.98 2°52.42 -999 3.319863 28.30216 16.343127
2003-04-10 07:20:08 51°18 2°52.42 -999 3.312717 29.362416 16.477965
2003-04-10 07:20:14 51°18.02 2°52.43 -999 3.323257 30.02628 15.938614
2003-04-10 07:20:18 51°18.04 2°52.43 -999 3.29504 30.412854 15.500392
2003-04-10 07:20:24 51°18.06 2°52.44 -999 3.288831 30.670493 15.63523
2003-04-10 07:20:28 51°18.08 2°52.45 -999 3.279355 30.814173 15.63523
2003-04-10 07:20:34 51°18.1 2°52.46 -999 3.279355 30.814173 15.63523
2003-04-10 07:20:38 51°18.11 2°52.47 -999 3.256716 30.734839 15.668939
2003-04-10 07:20:44 51°18.14 2°52.49 -999 3.190587 30.14024 15.702648
2003-04-10 07:20:48 51°18.15 2°52.5 -999 3.215333 30.483755 15.567811
2003-04-10 07:20:54 51°18.17 2°52.52 -999 3.229971 30.670297 15.736358
2003-04-10 07:20:58 51°18.19 2°52.53 -999 3.223232 30.65647 15.770067
2003-04-10 07:21:04 51°18.21 2°52.55 -999 3.223232 30.65647 15.770067
2003-04-10 07:21:08 51°18.22 2°52.57 -999 3.214387 30.59917 15.668939
2003-04-10 07:21:14 51°18.24 2°52.59 -999 3.212176 30.605154 15.702648
2003-04-10 07:21:18 51°18.25 2°52.6 -999 3.205332 30.557854 15.567811
2003-04-10 07:21:24 51°18.27 2°52.62 -999 3.20807 30.613164 15.736358
2003-04-10 07:21:28 51°18.29 2°52.64 -999 3.200594 30.548862 15.972324
2003-04-10 07:21:34 51°18.31 2°52.66 -999 3.200594 30.548862 15.972324
2003-04-10 07:21:38 51°18.32 2°52.67 -999 3.203437 30.595058 15.837486
2003-04-10 07:21:44 51°18.34 2°52.69 -999 3.202911 30.610814 15.668939
2003-04-10 07:21:48 51°18.35 2°52.71 -999 3.197331 30.560597 15.871195
2003-04-10 07:21:54 51°18.37 2°52.73 -999 3.197331 30.573094 15.534101
2003-04-10 07:21:58 51°18.39 2°52.74 -999 3.200595 30.615009 15.534101
2003-04-10 07:22:04 51°18.41 2°52.77 -999 3.200595 30.615009 15.534101
2003-04-10 07:22:08 51°18.42 2°52.78 -999 3.197752 30.598161 15.567811
2003-04-10 07:22:14 51°18.44 2°52.8 -999 3.192172 30.558188 15.432973
2003-04-10 07:22:18 51°18.45 2°52.82 -999 3.1987 30.631058 15.399264
2003-04-10 07:22:24 51°18.47 2°52.84 -999 3.197963 30.623983 15.432973
2003-04-10 07:22:28 51°18.48 2°52.86 -999 3.178273 30.41537 15.365554
2003-04-10 07:22:34 51°18.5 2°52.88 -999 3.178273 30.41537 15.365554
2003-04-10 07:22:38 51°18.52 2°52.9 -999 3.186065 30.508189 15.230717
2003-04-10 07:22:44 51°18.53 2°52.92 -999 3.198279 30.653921 14.758785
2003-04-10 07:22:48 51°18.55 2°52.94 -999 3.184486 30.515723 14.725076
2003-04-10 07:22:54 51°18.57 2°52.96 -999 3.188698 30.568506 14.691366
2003-04-10 07:22:58 51°18.58 2°52.98 -999 3.198701 30.676145 14.590238
2003-04-10 07:23:04 51°18.6 2°53 -999 3.198701 30.676145 14.590238
2003-04-10 07:23:08 51°18.61 2°53.02 -999 3.201965 30.716729 14.084597
2003-04-10 07:23:14 51°18.63 2°53.04 -999 3.183749 30.524843 14.050888
2003-04-10 07:23:18 51°18.64 2°53.06 -999 3.187329 30.573164 13.646375
2003-04-10 07:23:24 51°18.66 2°53.08 -999 3.198911 30.699124 13.713794
2003-04-10 07:23:28 51°18.67 2°53.1 -999 3.201123 30.730037 13.646375
2003-04-10 07:23:34 51°18.69 2°53.12 -999 3.201123 30.730037 13.646375
2003-04-10 07:23:38 51°18.7 2°53.14 -999 3.178695 30.499934 13.444118
2003-04-10 07:23:44 51°18.72 2°53.16 -999 3.180696 30.526341 13.309281
2003-04-10 07:23:48 51°18.74 2°53.18 -999 3.193331 30.664287 13.140734
2003-04-10 07:23:54 51°18.75 2°53.2 -999 3.183539 30.569836 13.073315
2003-04-10 07:23:58 51°18.77 2°53.22 -999 3.184171 30.578768 13.107024
2003-04-10 07:24:04 51°18.78 2°53.24 -999 3.184171 30.578768 13.107024
2003-04-10 07:24:08 51°18.79 2°53.26 -999 3.192699 30.671659 12.76993
2003-04-10 07:24:14 51°18.81 2°53.29 -999 3.196911 30.717192 12.736221
2003-04-10 07:24:18 51°18.82 2°53.31 -999 3.181117 30.552227 12.533965
2003-04-10 07:24:24 51°18.84 2°53.34 -999 3.186066 30.612237 12.399127
2003-04-10 07:24:28 51°18.85 2°53.36 -999 3.191436 30.673059 12.264289
2003-04-10 07:24:34 51°18.86 2°53.39 -999 3.191436 30.673059 12.264289
2003-04-10 07:24:38 51°18.87 2°53.4 -999 3.195437 30.720831 12.365418
2003-04-10 07:24:44 51°18.89 2°53.43 -999 3.195437 30.721574 12.062033
2003-04-10 07:24:48 51°18.9 2°53.45 -999 3.191542 30.686059 11.826067
2003-04-10 07:24:54 51°18.92 2°53.48 -999 3.184487 30.616182 11.455264
2003-04-10 07:24:58 51°18.93 2°53.5 -999 3.182065 30.5956 11.185589
2003-04-10 07:25:04 51°18.94 2°53.53 -999 3.182065 30.5956 11.185589
2003-04-10 07:25:08 51°18.95 2°53.55 -999 3.194911 30.737545 11.050751
2003-04-10 07:25:14 51°18.97 2°53.58 -999 3.178485 30.568611 10.882204
2003-04-10 07:25:18 51°18.98 2°53.6 -999 3.189331 30.685555 10.713657
2003-04-10 07:25:24 51°18.99 2°53.63 -999 3.192911 30.72666 10.578819
2003-04-10 07:25:28 51°19 2°53.65 -999 3.178275 30.573776 10.342853
2003-04-10 07:25:34 51°19.02 2°53.68 -999 3.178275 30.573776 10.342853
2003-04-10 07:25:38 51°19.03 2°53.7 -999 3.187014 30.669804 10.309144
2003-04-10 07:25:44 51°19.05 2°53.73 -999 3.185435 30.660413 10.309144
2003-04-10 07:25:48 51°19.06 2°53.74 -999 3.174063 30.545227 10.208016
2003-04-10 07:25:54 51°19.07 2°53.77 -999 3.176169 30.567654 10.275435
2003-04-10 07:25:58 51°19.08 2°53.79 -999 3.17301 30.535495 10.342853
2003-04-10 07:26:04 51°19.1 2°53.82 -999 3.17301 30.535495 10.342853
2003-04-10 07:26:08 51°19.11 2°53.84 -999 3.184171 30.657357 10.5114
2003-04-10 07:26:14 51°19.13 2°53.87 -999 3.186277 30.685007 10.814785
2003-04-10 07:26:18 51°19.14 2°53.89 -999 3.187225 30.694364 11.455264
2003-04-10 07:26:24 51°19.15 2°53.91 -999 3.181118 30.635222 11.859777
2003-04-10 07:26:28 51°19.16 2°53.93 -999 3.196386 30.799498 12.331708
2003-04-10 07:26:34 51°19.18 2°53.96 -999 3.196386 30.799498 12.331708
2003-04-10 07:26:38 51°19.18 2°53.99 -999 3.199334 30.833192 12.399127
2003-04-10 07:26:44 51°19.2 2°54.02 -999 3.198702 30.829444 12.76993
2003-04-10 07:26:48 51°19.2 2°54.04 -999 3.20123 30.859403 12.904768
2003-04-10 07:26:54 51°19.22 2°54.07 -999 3.200071 30.851535 13.410409
2003-04-10 07:26:58 51°19.22 2°54.1 -999 3.202072 30.868392 14.084597
2003-04-10 07:27:04 51°19.23 2°54.13 -999 3.202072 30.868392 14.084597
2003-04-10 07:27:08 51°19.24 2°54.15 -999 3.201756 30.862025 15.02846
2003-04-10 07:27:14 51°19.25 2°54.19 -999 3.208179 30.926823 15.803777
2003-04-10 07:27:18 51°19.26 2°54.21 -999 3.197755 30.805878 16.646512
2003-04-10 07:27:24 51°19.27 2°54.24 -999 3.205652 30.884867 17.421828
2003-04-10 07:27:28 51°19.27 2°54.27 -999 3.218604 31.021548 17.826341
2003-04-10 07:27:34 51°19.28 2°54.3 -999 3.218604 31.021548 17.826341
2003-04-10 07:27:38 51°19.29 2°54.32 -999 3.217235 31.00694 18.062306
2003-04-10 07:27:44 51°19.3 2°54.36 -999 3.214286 30.979235 18.129725
2003-04-10 07:27:48 51°19.31 2°54.38 -999 3.21376 30.978124 18.096016
2003-04-10 07:27:54 51°19.32 2°54.42 -999 3.219657 31.042572 18.331982
2003-04-10 07:27:58 51°19.33 2°54.44 -999 3.221658 31.06544 17.994888
2003-04-10 07:28:04 51°19.34 2°54.47 -999 3.221658 31.06544 17.994888
2003-04-10 07:28:08 51°19.34 2°54.49 -999 3.217761 31.023843 18.3994
2003-04-10 07:28:14 51°19.35 2°54.53 -999 3.219867 31.050093 18.096016
2003-04-10 07:28:18 51°19.36 2°54.55 -999 3.207969 30.923075 17.86005
2003-04-10 07:28:24 51°19.37 2°54.59 -999 3.213549 30.98264 17.725212
2003-04-10 07:28:28 51°19.38 2°54.61 -999 3.21039 30.949673 17.624084
2003-04-10 07:28:34 51°19.39 2°54.64 -999 3.21039 30.949673 17.624084
2003-04-10 07:28:38 51°19.39 2°54.67 -999 3.217656 31.030247 17.421828
2003-04-10 07:28:44 51°19.4 2°54.7 -999 3.222395 31.078588 17.28699
2003-04-10 07:28:48 51°19.41 2°54.72 -999 3.224395 31.099201 17.118443
2003-04-10 07:28:54 51°19.42 2°54.76 -999 3.212075 30.966153 17.354409
2003-04-10 07:28:58 51°19.43 2°54.78 -999 3.217446 31.021976 17.017315
2003-04-10 07:29:04 51°19.44 2°54.81 -999 3.217446 31.021976 17.017315
2003-04-10 07:29:08 51°19.45 2°54.84 -999 3.211233 30.957162 16.916187
2003-04-10 07:29:14 51°19.46 2°54.87 -999 3.217656 31.024977 16.916187
2003-04-10 07:29:18 51°19.46 2°54.89 -999 3.212918 30.972891 16.781349
2003-04-10 07:29:24 51°19.48 2°54.93 -999 3.226501 31.11792 16.545383
2003-04-10 07:29:28 51°19.48 2°54.95 -999 3.217235 31.019727 16.646512
2003-04-10 07:29:34 51°19.49 2°54.98 -999 3.217235 31.019727 16.646512
2003-04-10 07:29:38 51°19.5 2°55 -999 3.210075 30.943298 16.376836
2003-04-10 07:29:44 51°19.51 2°55.04 -999 3.223658 31.087557 16.545383
2003-04-10 07:29:48 51°19.52 2°55.06 -999 3.215129 30.99875 16.579093
2003-04-10 07:29:54 51°19.53 2°55.1 -999 3.210285 30.943294 16.579093
2003-04-10 07:29:58 51°19.53 2°55.12 -999 3.211549 30.956028 16.275708
2003-04-10 07:30:04 51°19.54 2°55.15 -999 3.211549 30.956028 16.275708
2003-04-10 07:30:08 51°19.55 2°55.18 -999 3.212286 30.963143 16.140871
2003-04-10 07:30:14 51°19.56 2°55.21 -999 3.21218 30.960517 16.275708
2003-04-10 07:30:18 51°19.57 2°55.23 -999 3.215866 31.000601 16.039742
2003-04-10 07:30:24 51°19.58 2°55.27 -999 3.217656 31.019709 15.972324
2003-04-10 07:30:28 51°19.58 2°55.29 -999 3.223026 31.076287 16.17458
2003-04-10 07:30:34 51°19.59 2°55.32 -999 3.223026 31.076287 16.17458
2003-04-10 07:30:38 51°19.6 2°55.35 -999 3.223448 31.080784 16.241999
2003-04-10 07:30:44 51°19.61 2°55.38 -999 3.223658 31.083033 16.17458
2003-04-10 07:30:48 51°19.62 2°55.4 -999 3.224817 31.094646 15.972324
2003-04-10 07:30:54 51°19.63 2°55.44 -999 3.221236 31.055669 16.275708
2003-04-10 07:30:58 51°19.63 2°55.46 -999 3.223658 31.080017 15.938614
2003-04-10 07:31:04 51°19.64 2°55.5 -999 3.223658 31.080017 15.938614
2003-04-10 07:31:08 51°19.65 2°55.52 -999 3.222289 31.06691 15.63523
2003-04-10 07:31:14 51°19.66 2°55.55 -999 3.221342 31.055286 15.432973
2003-04-10 07:31:18 51°19.67 2°55.58 -999 3.217867 31.015186 15.095879
2003-04-10 07:31:24 51°19.68 2°55.61 -999 3.216498 31.004337 14.994751
2003-04-10 07:31:28 51°19.68 2°55.63 -999 3.223448 31.080784 14.657657
2003-04-10 07:31:34 51°19.69 2°55.67 -999 3.223448 31.080784 14.657657
2003-04-10 07:31:38 51°19.7 2°55.69 -999 3.221658 31.059412 14.691366
2003-04-10 07:31:44 51°19.71 2°55.73 -999 3.221131 31.059818 14.4554
2003-04-10 07:31:48 51°19.71 2°55.75 -999 3.218183 31.029092 14.354272
2003-04-10 07:31:54 51°19.72 2°55.79 -999 3.219657 31.046338 14.657657
2003-04-10 07:31:58 51°19.73 2°55.81 -999 3.216708 31.015612 14.320563
2003-04-10 07:32:04 51°19.73 2°55.85 -999 3.216708 31.015612 14.320563
2003-04-10 07:32:08 51°19.74 2°55.87 -999 3.217551 31.024605 14.320563
2003-04-10 07:32:14 51°19.75 2°55.91 -999 3.210706 30.955298 14.152016
2003-04-10 07:32:18 51°19.75 2°55.93 -999 3.218393 31.033599 14.084597
2003-04-10 07:32:24 51°19.76 2°55.96 -999 3.218604 31.037354 14.185725
2003-04-10 07:32:28 51°19.76 2°55.99 -999 3.219446 31.046349 13.983469
2003-04-10 07:32:34 51°19.77 2°56.02 -999 3.219446 31.046349 13.983469
2003-04-10 07:32:38 51°19.78 2°56.05 -999 3.219762 31.051229 14.185725
2003-04-10 07:32:44 51°19.78 2°56.08 -999 3.215445 31.00814 13.983469
2003-04-10 07:32:48 51°19.79 2°56.11 -999 3.210706 30.960556 13.814922
2003-04-10 07:32:54 51°19.8 2°56.14 -999 3.211022 30.966184 13.545247
2003-04-10 07:32:58 51°19.8 2°56.17 -999 3.215234 31.009654 13.511537
2003-04-10 07:33:04 51°19.81 2°56.2 -999 3.215234 31.009654 13.511537
2003-04-10 07:33:08 51°19.81 2°56.23 -999 3.211338 30.970308 13.444118
2003-04-10 07:33:14 51°19.82 2°56.26 -999 3.217867 31.040028 13.174443
2003-04-10 07:33:18 51°19.83 2°56.29 -999 3.216498 31.025407 13.174443
2003-04-10 07:33:24 51°19.83 2°56.32 -999 3.219446 31.061422 12.938477
2003-04-10 07:33:28 51°19.84 2°56.34 -999 3.216814 31.036314 12.904768
2003-04-10 07:33:34 51°19.85 2°56.38 -999 3.216814 31.036314 12.904768
2003-04-10 07:33:38 51°19.85 2°56.4 -999 3.220921 31.080944 13.174443
2003-04-10 07:33:44 51°19.86 2°56.44 -999 3.220815 31.082083 12.938477
2003-04-10 07:33:48 51°19.87 2°56.46 -999 3.215024 31.021711 12.972187
2003-04-10 07:33:54 51°19.87 2°56.5 -999 3.212391 30.992083 13.140734
2003-04-10 07:33:58 51°19.88 2°56.52 -999 3.215866 31.02845 12.80364
2003-04-10 07:34:04 51°19.89 2°56.56 -999 3.215866 31.02845 12.80364
2003-04-10 07:34:08 51°19.89 2°56.58 -999 3.211549 30.979324 13.073315
2003-04-10 07:34:14 51°19.9 2°56.62 -999 3.218288 31.055833 12.972187
2003-04-10 07:34:18 51°19.91 2°56.64 -999 3.222395 31.098207 13.005896
2003-04-10 07:34:24 51°19.91 2°56.68 -999 3.221237 31.085075 12.938477
2003-04-10 07:34:28 51°19.92 2°56.7 -999 3.210285 30.968837 12.972187
2003-04-10 07:34:34 51°19.93 2°56.74 -999 3.210285 30.968837 12.972187
2003-04-10 07:34:38 51°19.93 2°56.76 -999 3.220078 31.073452 12.80364
2003-04-10 07:34:44 51°19.94 2°56.79 -999 3.222606 31.100458 12.76993
2003-04-10 07:34:48 51°19.95 2°56.82 -999 3.219973 31.074591 12.601383
2003-04-10 07:34:54 51°19.95 2°56.85 -999 3.219552 31.072353 12.80364
2003-04-10 07:34:58 51°19.96 2°56.88 -999 3.219447 31.070474 12.635093
2003-04-10 07:35:04 51°19.97 2°56.91 -999 3.219447 31.070474 12.635093
2003-04-10 07:35:08 51°19.97 2°56.94 -999 3.215445 31.026964 12.736221
2003-04-10 07:35:14 51°19.98 2°56.97 -999 3.222395 31.101983 12.938477
2003-04-10 07:35:18 51°19.98 2°57 -999 3.219341 31.069348 12.76993
2003-04-10 07:35:24 51°19.99 2°57.03 -999 3.211023 30.98047 12.736221
2003-04-10 07:35:28 51°20 2°57.06 -999 3.216182 31.035593 12.601383
2003-04-10 07:35:34 51°20.01 2°57.09 -999 3.216182 31.035593 12.601383
2003-04-10 07:35:38 51°20.01 2°57.12 -999 3.219552 31.077636 12.837349
2003-04-10 07:35:44 51°20.02 2°57.15 -999 3.214287 31.019109 12.601383
2003-04-10 07:35:48 51°20.02 2°57.17 -999 3.225449 31.143699 12.500255
2003-04-10 07:35:54 51°20.03 2°57.21 -999 3.215551 31.039395 12.466546
2003-04-10 07:35:58 51°20.04 2°57.23 -999 3.219131 31.078419 12.567674
2003-04-10 07:36:04 51°20.04 2°57.27 -999 3.219131 31.078419 12.567674
2003-04-10 07:36:08 51°20.05 2°57.29 -999 3.219657 31.084802 12.500255
2003-04-10 07:36:14 51°20.06 2°57.33 -999 3.219973 31.08969 12.399127
2003-04-10 07:36:18 51°20.06 2°57.35 -999 3.215972 31.046914 12.432836
2003-04-10 07:36:24 51°20.07 2°57.39 -999 3.221553 31.108089 12.432836
2003-04-10 07:36:28 51°20.08 2°57.41 -999 3.221869 31.116003 12.432836
2003-04-10 07:36:34 51°20.08 2°57.45 -999 3.221869 31.116003 12.432836
2003-04-10 07:36:38 51°20.09 2°57.47 -999 3.215235 31.045069 12.601383
2003-04-10 07:36:44 51°20.1 2°57.51 -999 3.219447 31.091615 12.533965
2003-04-10 07:36:48 51°20.1 2°57.53 -999 3.222922 31.128777 12.500255
2003-04-10 07:36:54 51°20.11 2°57.57 -999 3.223659 31.138175 12.601383
2003-04-10 07:36:58 51°20.12 2°57.59 -999 3.222185 31.122407 12.533965
2003-04-10 07:37:04 51°20.12 2°57.62 -999 3.222185 31.122407 12.533965
2003-04-10 07:37:08 51°20.13 2°57.65 -999 3.225133 31.156215 12.500255
2003-04-10 07:37:14 51°20.14 2°57.68 -999 3.223238 31.135183 12.938477
2003-04-10 07:37:18 51°20.14 2°57.71 -999 3.217762 31.078131 13.005896
2003-04-10 07:37:24 51°20.15 2°57.74 -999 3.216604 31.064989 13.241862
2003-04-10 07:37:28 51°20.15 2°57.77 -999 3.222395 31.126929 13.174443
2003-04-10 07:37:34 51°20.16 2°57.8 -999 3.222395 31.126929 13.174443
2003-04-10 07:37:38 51°20.17 2°57.83 -999 3.223554 31.140833 13.275571
2003-04-10 07:37:44 51°20.18 2°57.86 -999 3.223027 31.13293 13.241862
2003-04-10 07:37:48 51°20.18 2°57.89 -999 3.220816 31.111547 13.073315
2003-04-10 07:37:54 51°20.19 2°57.92 -999 3.225239 31.161887 13.208153
2003-04-10 07:37:58 51°20.19 2°57.94 -999 3.216709 31.06838 13.174443
2003-04-10 07:38:04 51°20.2 2°57.98 -999 3.216709 31.06838 13.174443
2003-04-10 07:38:08 51°20.21 2°58 -999 3.213024 31.031232 13.241862
2003-04-10 07:38:14 51°20.22 2°58.04 -999 3.227766 31.18817 13.174443
2003-04-10 07:38:18 51°20.22 2°58.06 -999 3.216814 31.071017 13.208153
2003-04-10 07:38:24 51°20.23 2°58.1 -999 3.218394 31.089421 13.107024
2003-04-10 07:38:28 51°20.23 2°58.12 -999 3.228924 31.203599 13.174443
2003-04-10 07:38:34 51°20.24 2°58.16 -999 3.228924 31.203599 13.174443
2003-04-10 07:38:38 51°20.25 2°58.18 -999 3.22587 31.170162 13.073315
2003-04-10 07:38:44 51°20.26 2°58.22 -999 3.226292 31.18225 13.073315
2003-04-10 07:38:48 51°20.26 2°58.24 -999 3.227345 31.191245 12.904768
2003-04-10 07:38:54 51°20.27 2°58.28 -999 3.218815 31.098463 13.039606
2003-04-10 07:38:58 51°20.27 2°58.3 -999 3.225344 31.171349 13.039606
2003-04-10 07:39:04 51°20.28 2°58.34 -999 3.225344 31.171349 13.039606
2003-04-10 07:39:08 51°20.29 2°58.36 -999 3.22903 31.211555 12.904768
2003-04-10 07:39:14 51°20.3 2°58.39 -999 3.229135 31.212682 12.76993
2003-04-10 07:39:18 51°20.3 2°58.42 -999 3.219447 31.10976 12.904768
2003-04-10 07:39:24 51°20.31 2°58.45 -999 3.225239 31.170222 12.736221
2003-04-10 07:39:28 51°20.32 2°58.48 -999 3.225555 31.172845 12.76993
2003-04-10 07:39:34 51°20.32 2°58.51 -999 3.225555 31.172845 12.76993
2003-04-10 07:39:38 51°20.33 2°58.54 -999 3.225344 31.175139 12.80364
2003-04-10 07:39:44 51°20.34 2°58.57 -999 3.22903 31.214592 12.76993
2003-04-10 07:39:48 51°20.34 2°58.59 -999 3.229451 31.220619 12.466546
2003-04-10 07:39:54 51°20.35 2°58.63 -999 3.230293 31.22812 12.365418
2003-04-10 07:39:58 51°20.36 2°58.65 -999 3.225449 31.178541 12.399127
2003-04-10 07:40:04 51°20.36 2°58.69 -999 3.225449 31.178541 12.399127
2003-04-10 07:40:08 51°20.37 2°58.71 -999 3.22903 31.216869 12.432836
2003-04-10 07:40:14 51°20.38 2°58.75 -999 3.228819 31.216133 12.601383
2003-04-10 07:40:18 51°20.38 2°58.77 -999 3.225555 31.184219 12.399127
2003-04-10 07:40:24 51°20.39 2°58.81 -999 3.228292 31.210496 12.163161
2003-04-10 07:40:28 51°20.4 2°58.83 -999 3.229662 31.23427 11.792358
2003-04-10 07:40:34 51°20.41 2°58.86 -999 3.229662 31.23427 11.792358
2003-04-10 07:40:38 51°20.41 2°58.89 -999 3.226818 31.209896 11.724939
2003-04-10 07:40:44 51°20.42 2°58.92 -999 3.225239 31.192978 11.286717
2003-04-10 07:40:48 51°20.42 2°58.95 -999 3.224923 31.195669 11.185589
2003-04-10 07:40:54 51°20.43 2°58.98 -999 3.230504 31.256221 11.08446
2003-04-10 07:40:58 51°20.44 2°59.01 -999 3.222501 31.171244 11.11817
2003-04-10 07:41:04 51°20.45 2°59.04 -999 3.222501 31.171244 11.11817
2003-04-10 07:41:08 51°20.45 2°59.06 -999 3.232189 31.278083 11.151879
2003-04-10 07:41:14 51°20.46 2°59.1 -999 3.228714 31.240083 11.387845
2003-04-10 07:41:18 51°20.47 2°59.12 -999 3.227977 31.231424 11.69123
2003-04-10 07:41:24 51°20.47 2°59.16 -999 3.228398 31.235937 12.163161
2003-04-10 07:41:28 51°20.48 2°59.18 -999 3.222291 31.168229 12.668802
2003-04-10 07:41:34 51°20.49 2°59.22 -999 3.222291 31.168229 12.668802
2003-04-10 07:41:38 51°20.49 2°59.24 -999 3.229662 31.245674 13.275571
2003-04-10 07:41:44 51°20.5 2°59.27 -999 3.229135 31.236231 14.590238
2003-04-10 07:41:48 51°20.51 2°59.3 -999 3.229872 31.238045 16.74764
2003-04-10 07:41:54 51°20.51 2°59.33 -999 3.229767 31.233118 18.534238
2003-04-10 07:41:58 51°20.52 2°59.36 -999 3.232294 31.254102 19.882614
2003-04-10 07:42:04 51°20.53 2°59.39 -999 3.232294 31.254102 19.882614
2003-04-10 07:42:08 51°20.53 2°59.41 -999 3.224923 31.170631 21.736631
2003-04-10 07:42:14 51°20.54 2°59.45 -999 3.228187 31.199503 22.208563
2003-04-10 07:42:18 51°20.55 2°59.47 -999 3.227976 31.192698 22.815332
2003-04-10 07:42:24 51°20.55 2°59.51 -999 3.230714 31.220481 22.91646
2003-04-10 07:42:28 51°20.56 2°59.53 -999 3.229661 31.206177 22.983879
2003-04-10 07:42:34 51°20.57 2°59.57 -999 3.229661 31.206177 22.983879
2003-04-10 07:42:38 51°20.57 2°59.59 -999 3.224817 31.152836 23.051298
2003-04-10 07:42:44 51°20.58 2°59.63 -999 3.223975 31.143067 23.590648
2003-04-10 07:42:48 51°20.59 2°59.65 -999 3.223448 31.136679 23.320973
2003-04-10 07:42:54 51°20.59 2°59.68 -999 3.235348 31.261712 23.354683
2003-04-10 07:42:58 51°20.6 2°59.71 -999 3.233347 31.241821 23.354683
2003-04-10 07:43:04 51°20.61 2°59.74 -999 3.233347 31.241821 23.354683
2003-04-10 07:43:08 51°20.61 2°59.76 -999 3.233031 31.234645 23.253554
2003-04-10 07:43:14 51°20.62 2°59.8 -999 3.231767 31.221883 23.422101
2003-04-10 07:43:18 51°20.63 2°59.82 -999 3.231451 31.212435 23.287264
2003-04-10 07:43:24 51°20.63 2°59.86 -999 3.230714 31.207584 23.455811
2003-04-10 07:43:28 51°20.64 2°59.88 -999 3.231767 31.215815 23.590648
2003-04-10 07:43:34 51°20.65 2°59.92 -999 3.231767 31.215815 23.590648
2003-04-10 07:43:38 51°20.65 2°59.94 -999 3.230188 31.199677 23.826614
2003-04-10 07:43:44 51°20.66 2°59.97 -999 3.230503 31.205331 24.433383
2003-04-10 07:43:48 51°20.67 3°0 -999 3.229029 31.185772 24.871606
2003-04-10 07:43:54 51°20.67 3°0.03 -999 3.228397 31.178257 25.478375
2003-04-10 07:43:58 51°20.68 3°0.06 -999 3.229135 31.186898 25.579503
2003-04-10 07:44:04 51°20.69 3°0.09 -999 3.229135 31.186898 25.579503
2003-04-10 07:44:08 51°20.69 3°0.12 -999 3.228819 31.179731 26.388529
2003-04-10 07:44:14 51°20.7 3°0.15 -999 3.228292 31.174101 26.759332
2003-04-10 07:44:18 51°20.71 3°0.17 -999 3.228397 31.175227 26.624494
2003-04-10 07:44:24 51°20.72 3°0.21 -999 3.227976 31.168451 27.096426
2003-04-10 07:44:28 51°20.72 3°0.23 -999 3.227344 31.158668 26.590785
2003-04-10 07:44:34 51°20.73 3°0.27 -999 3.227344 31.158668 26.590785
2003-04-10 07:44:38 51°20.73 3°0.29 -999 3.227555 31.16319 26.422238
2003-04-10 07:44:44 51°20.74 3°0.33 -999 3.22587 31.147446 26.2874
2003-04-10 07:44:48 51°20.75 3°0.35 -999 3.225449 31.142186 26.186272
2003-04-10 07:44:54 51°20.76 3°0.39 -999 3.227134 31.1602 26.422238
2003-04-10 07:44:58 51°20.76 3°0.41 -999 3.226081 31.150455 26.422238
2003-04-10 07:45:04 51°20.77 3°0.45 -999 3.226081 31.150455 26.422238
2003-04-10 07:45:08 51°20.78 3°0.47 -999 3.22587 31.148959 26.253691
2003-04-10 07:45:14 51°20.78 3°0.5 -999 3.225975 31.147815 25.74805
2003-04-10 07:45:18 51°20.79 3°0.53 -999 3.225765 31.144807 25.478375
2003-04-10 07:45:24 51°20.8 3°0.56 -999 3.22408 31.129062 25.107571
2003-04-10 07:45:28 51°20.8 3°0.59 -999 3.225554 31.144825 24.939024
2003-04-10 07:45:34 51°20.81 3°0.62 -999 3.225554 31.144825 24.939024
2003-04-10 07:45:38 51°20.82 3°0.64 -999 3.224817 31.135431 24.736768
2003-04-10 07:45:44 51°20.82 3°0.68 -999 3.224185 31.132457 24.500802
2003-04-10 07:45:48 51°20.83 3°0.7 -999 3.224501 31.136591 24.231127
2003-04-10 07:45:54 51°20.84 3°0.74 -999 3.224396 31.133953 24.298546
2003-04-10 07:45:58 51°20.84 3°0.76 -999 3.223764 31.127953 24.163708
2003-04-10 07:46:04 51°20.85 3°0.8 -999 3.223764 31.127953 24.163708
2003-04-10 07:46:08 51°20.86 3°0.82 -999 3.223869 31.132105 23.691777
2003-04-10 07:46:14 51°20.86 3°0.85 -999 3.223869 31.131348 23.759195
2003-04-10 07:46:18 51°20.87 3°0.88 -999 3.223343 31.127231 23.860324
2003-04-10 07:46:24 51°20.88 3°0.91 -999 3.223132 31.125735 24.028871
2003-04-10 07:46:28 51°20.88 3°0.94 -999 3.222816 31.119332 23.826614
2003-04-10 07:46:34 51°20.89 3°0.97 -999 3.222816 31.119332 23.826614
2003-04-10 07:46:38 51°20.9 3°0.99 -999 3.223132 31.123466 24.231127
2003-04-10 07:46:44 51°20.9 3°1.03 -999 3.223448 31.1276 24.365965
2003-04-10 07:46:48 51°20.91 3°1.05 -999 3.223238 31.124592 24.264836
2003-04-10 07:46:54 51°20.92 3°1.09 -999 3.222816 31.120088 24.365965
2003-04-10 07:46:58 51°20.92 3°1.11 -999 3.222816 31.113285 24.534512
2003-04-10 07:47:04 51°20.93 3°1.15 -999 3.222816 31.113285 24.534512
2003-04-10 07:47:08 51°20.93 3°1.17 -999 3.222079 31.112963 24.736768
2003-04-10 07:47:14 51°20.94 3°1.2 -999 3.224607 31.13923 24.871606
2003-04-10 07:47:18 51°20.95 3°1.23 -999 3.223659 31.127584 25.410956
2003-04-10 07:47:24 51°20.96 3°1.26 -999 3.223553 31.125701 25.2087
2003-04-10 07:47:28 51°20.96 3°1.29 -999 3.223448 31.121551 25.040153
2003-04-10 07:47:34 51°20.97 3°1.32 -999 3.223448 31.121551 25.040153
2003-04-10 07:47:38 51°20.98 3°1.34 -999 3.223764 31.126441 25.276118
2003-04-10 07:47:44 51°20.98 3°1.38 -999 3.223238 31.120056 24.568221
2003-04-10 07:47:48 51°20.99 3°1.4 -999 3.223027 31.117804 24.804187
2003-04-10 07:47:54 51°21 3°1.44 -999 3.22229 31.110679 24.804187
2003-04-10 07:47:58 51°21 3°1.46 -999 3.222816 31.115553 24.433383
2003-04-10 07:48:04 51°21.01 3°1.5 -999 3.222816 31.115553 24.433383
2003-04-10 07:48:08 51°21.02 3°1.52 -999 3.222816 31.11782 24.399674
2003-04-10 07:48:14 51°21.02 3°1.55 -999 3.222185 31.111821 24.60193
2003-04-10 07:48:18 51°21.03 3°1.58 -999 3.222816 31.119332 24.06258
2003-04-10 07:48:24 51°21.04 3°1.61 -999 3.2225 31.115199 23.725486
2003-04-10 07:48:28 51°21.04 3°1.63 -999 3.223659 31.129096 23.725486
2003-04-10 07:48:34 51°21.05 3°1.67 -999 3.223659 31.129096 23.725486
2003-04-10 07:48:38 51°21.06 3°1.69 -999 3.221026 31.099437 23.792905
2003-04-10 07:48:44 51°21.06 3°1.73 -999 3.22408 31.130575 23.624358
2003-04-10 07:48:48 51°21.07 3°1.75 -999 3.224922 31.140339 23.792905
2003-04-10 07:48:54 51°21.08 3°1.78 -999 3.224817 31.1377 23.691777
2003-04-10 07:48:58 51°21.08 3°1.81 -999 3.224712 31.138843 24.365965
2003-04-10 07:49:04 51°21.09 3°1.84 -999 3.224712 31.138843 24.365965
2003-04-10 07:49:08 51°21.1 3°1.87 -999 3.225449 31.142942 24.972734
2003-04-10 07:49:14 51°21.1 3°1.9 -999 3.227555 31.164704 25.478375
2003-04-10 07:49:18 51°21.11 3°1.92 -999 3.225975 31.149329 25.579503
2003-04-10 07:49:24 51°21.12 3°1.96 -999 3.225765 31.143294 25.579503
2003-04-10 07:49:28 51°21.12 3°1.98 -999 3.22587 31.146689 25.714341
2003-04-10 07:49:34 51°21.13 3°2.02 -999 3.22587 31.146689 25.714341
2003-04-10 07:49:38 51°21.13 3°2.04 -999 3.226081 31.147428 25.680631
2003-04-10 07:49:44 51°21.14 3°2.07 -999 3.226397 31.150049 25.613212
2003-04-10 07:49:48 51°21.15 3°2.1 -999 3.226291 31.150436 25.343537
2003-04-10 07:49:54 51°21.16 3°2.13 -999 3.226397 31.150806 24.534512
2003-04-10 07:49:58 51°21.16 3°2.16 -999 3.226291 31.150436 24.669349
2003-04-10 07:50:04 51°21.17 3°2.19 -999 3.226291 31.150436 24.669349
2003-04-10 07:50:08 51°21.17 3°2.21 -999 3.226607 31.155328 24.736768
2003-04-10 07:50:14 51°21.18 3°2.25 -999 3.225975 31.152356 25.040153
2003-04-10 07:50:18 51°21.19 3°2.27 -999 3.227134 31.160957 24.837896
2003-04-10 07:50:24 51°21.19 3°2.31 -999 3.22745 31.164335 24.770477
2003-04-10 07:50:28 51°21.2 3°2.33 -999 3.226923 31.157192 24.60193
2003-04-10 07:50:34 51°21.21 3°2.37 -999 3.226923 31.157192 24.60193
2003-04-10 07:50:38 51°21.21 3°2.39 -999 3.228187 31.169189 24.129999
2003-04-10 07:50:44 51°21.22 3°2.42 -999 3.228503 31.17181 23.658067
2003-04-10 07:50:48 51°21.23 3°2.45 -999 3.229977 31.187573 23.085007
2003-04-10 07:50:54 51°21.23 3°2.48 -999 3.229556 31.182312 22.849042
2003-04-10 07:50:58 51°21.24 3°2.51 -999 3.230082 31.187184 22.208563
2003-04-10 07:51:04 51°21.25 3°2.54 -999 3.230082 31.187184 22.208563
2003-04-10 07:51:08 51°21.25 3°2.56 -999 3.229661 31.184953 21.871469
2003-04-10 07:51:14 51°21.26 3°2.6 -999 3.230819 31.200371 21.635503
2003-04-10 07:51:18 51°21.27 3°2.62 -999 3.231135 31.206023 21.2647
2003-04-10 07:51:24 51°21.27 3°2.66 -999 3.230714 31.20076 20.995024
2003-04-10 07:51:28 51°21.28 3°2.68 -999 3.23103 31.205655 20.860187
2003-04-10 07:51:34 51°21.29 3°2.72 -999 3.23103 31.205655 20.860187
2003-04-10 07:51:38 51°21.29 3°2.74 -999 3.230714 31.201518 20.287127
2003-04-10 07:51:44 51°21.3 3°2.78 -999 3.231767 31.213539 20.017452
2003-04-10 07:51:48 51°21.31 3°2.8 -999 3.231346 31.212067 20.65793
2003-04-10 07:51:54 51°21.32 3°2.83 -999 3.230925 31.206803 21.163571
2003-04-10 07:51:58 51°21.32 3°2.86 -999 3.231346 31.212067 21.433247
2003-04-10 07:52:04 51°21.33 3°2.89 -999 3.231346 31.212067 21.433247
2003-04-10 07:52:08 51°21.33 3°2.92 -999 3.231451 31.214711 22.646785
2003-04-10 07:52:14 51°21.34 3°2.95 -999 3.231241 31.211699 23.118717
2003-04-10 07:52:18 51°21.35 3°2.98 -999 3.230925 31.209078 24.163708
2003-04-10 07:52:24 51°21.35 3°3.01 -999 3.231346 31.209792 25.242409
2003-04-10 07:52:28 51°21.36 3°3.03 -999 3.232399 31.220298 26.085144
2003-04-10 07:52:34 51°21.37 3°3.07 -999 3.232399 31.220298 26.085144
2003-04-10 07:52:38 51°21.37 3°3.09 -999 3.23103 31.203381 26.826751
2003-04-10 07:52:44 51°21.38 3°3.13 -999 3.231346 31.208276 26.961589
2003-04-10 07:52:48 51°21.39 3°3.15 -999 3.231135 31.204507 27.46723
2003-04-10 07:52:54 51°21.39 3°3.19 -999 3.231135 31.202991 27.703195
2003-04-10 07:52:58 51°21.4 3°3.21 -999 3.231451 31.207128 28.073999
2003-04-10 07:53:04 51°21.41 3°3.25 -999 3.231451 31.207128 28.073999
2003-04-10 07:53:08 51°21.41 3°3.27 -999 3.231662 31.210897 27.736905
2003-04-10 07:53:14 51°21.42 3°3.31 -999 3.231241 31.206391 26.961589
2003-04-10 07:53:18 51°21.43 3°3.33 -999 3.232188 31.21577 25.815469
2003-04-10 07:53:24 51°21.43 3°3.36 -999 3.231135 31.206023 25.141281
2003-04-10 07:53:28 51°21.44 3°3.39 -999 3.231346 31.209792 23.792905
2003-04-10 07:53:34 51°21.45 3°3.42 -999 3.231346 31.209792 23.792905
2003-04-10 07:53:38 51°21.45 3°3.45 -999 3.231135 31.20754 22.95017
2003-04-10 07:53:44 51°21.46 3°3.48 -999 3.231767 31.215815 22.309691
2003-04-10 07:53:48 51°21.47 3°3.5 -999 3.231557 31.215079 21.871469
2003-04-10 07:53:54 51°21.47 3°3.54 -999 3.231241 31.212458 21.500665
2003-04-10 07:53:58 51°21.48 3°3.56 -999 3.231135 31.21209 20.826477
2003-04-10 07:54:04 51°21.49 3°3.6 -999 3.231135 31.21209 20.826477
2003-04-10 07:54:08 51°21.49 3°3.62 -999 3.230819 31.211744 20.556802
2003-04-10 07:54:14 51°21.5 3°3.66 -999 3.230925 31.21287 19.983742
2003-04-10 07:54:18 51°21.51 3°3.68 -999 3.23103 31.219308 20.152289
2003-04-10 07:54:24 51°21.51 3°3.72 -999 3.23082 31.217054 19.747777
2003-04-10 07:54:28 51°21.52 3°3.74 -999 3.231662 31.230623 19.646648
2003-04-10 07:54:34 51°21.53 3°3.77 -999 3.231662 31.230623 19.646648
2003-04-10 07:54:38 51°21.53 3°3.8 -999 3.230714 31.22124 19.714067
2003-04-10 07:54:44 51°21.54 3°3.83 -999 3.232715 31.242653 19.309554
2003-04-10 07:54:48 51°21.55 3°3.86 -999 3.230609 31.221631 19.410683
2003-04-10 07:54:54 51°21.55 3°3.89 -999 3.231241 31.230671 19.646648
2003-04-10 07:54:58 51°21.56 3°3.91 -999 3.230082 31.218273 19.950033
2003-04-10 07:55:04 51°21.57 3°3.95 -999 3.230082 31.218273 19.950033
2003-04-10 07:55:08 51°21.57 3°3.97 -999 3.231662 31.232901 21.298409
2003-04-10 07:55:14 51°21.58 3°4.01 -999 3.23082 31.223126 22.309691
2003-04-10 07:55:18 51°21.59 3°4.03 -999 3.231451 31.226851 23.624358
2003-04-10 07:55:24 51°21.59 3°4.06 -999 3.231662 31.226828 24.905315
2003-04-10 07:55:28 51°21.6 3°4.09 -999 3.23103 31.217032 26.186272
2003-04-10 07:55:34 51°21.61 3°4.12 -999 3.23103 31.217032 26.186272
2003-04-10 07:55:38 51°21.61 3°4.15 -999 3.231557 31.220389 26.89417
2003-04-10 07:55:44 51°21.62 3°4.18 -999 3.232083 31.223746 27.062717
2003-04-10 07:55:48 51°21.63 3°4.2 -999 3.231767 31.220366 27.669486
2003-04-10 07:55:54 51°21.63 3°4.24 -999 3.232715 31.228988 27.939161
2003-04-10 07:55:58 51°21.64 3°4.26 -999 3.232399 31.224849 28.073999
2003-04-10 07:56:04 51°21.65 3°4.3 -999 3.232399 31.224849 28.073999
2003-04-10 07:56:08 51°21.65 3°4.32 -999 3.233241 31.233103 27.568358
2003-04-10 07:56:14 51°21.66 3°4.36 -999 3.232925 31.228965 28.242546
2003-04-10 07:56:18 51°21.67 3°4.38 -999 3.233557 31.234965 27.534648
2003-04-10 07:56:24 51°21.67 3°4.42 -999 3.233031 31.227056 27.770614
2003-04-10 07:56:28 51°21.68 3°4.44 -999 3.233873 31.235309 27.534648
2003-04-10 07:56:34 51°21.69 3°4.47 -999 3.233873 31.235309 27.534648
2003-04-10 07:56:38 51°21.69 3°4.5 -999 3.233663 31.233815 27.332392
2003-04-10 07:56:44 51°21.7 3°4.53 -999 3.233663 31.235332 27.332392
2003-04-10 07:56:48 51°21.71 3°4.55 -999 3.233873 31.235309 27.096426
2003-04-10 07:56:54 51°21.71 3°4.59 -999 3.233978 31.238712 26.961589
2003-04-10 07:56:58 51°21.72 3°4.61 -999 3.234189 31.240206 26.725623
2003-04-10 07:57:04 51°21.73 3°4.65 -999 3.234189 31.240206 26.725623
2003-04-10 07:57:08 51°21.73 3°4.67 -999 3.233978 31.238712 26.691913
2003-04-10 07:57:14 51°21.74 3°4.71 -999 3.237454 31.275891 26.89417
2003-04-10 07:57:18 51°21.74 3°4.73 -999 3.235558 31.255611 26.422238
2003-04-10 07:57:24 51°21.75 3°4.76 -999 3.235979 31.261636 26.219982
2003-04-10 07:57:28 51°21.76 3°4.79 -999 3.235453 31.257522 26.725623
2003-04-10 07:57:34 51°21.77 3°4.82 -999 3.235453 31.257522 26.725623
2003-04-10 07:57:38 51°21.77 3°4.85 -999 3.2364 31.265383 28.040289
2003-04-10 07:57:44 51°21.78 3°4.88 -999 3.235663 31.258256 29.759469
2003-04-10 07:57:48 51°21.78 3°4.9 -999 3.236085 31.261244 31.95058
2003-04-10 07:57:54 51°21.79 3°4.94 -999 3.238401 31.279951 33.770888
2003-04-10 07:57:58 51°21.8 3°4.96 -999 3.236506 31.258915 35.726033
2003-04-10 07:58:04 51°21.8 3°5 -999 3.236506 31.258915 35.726033
2003-04-10 07:58:08 51°21.81 3°5.02 -999 3.236506 31.25436 37.310375
2003-04-10 07:58:14 51°21.82 3°5.05 -999 3.237453 31.262219 38.72617
2003-04-10 07:58:18 51°21.82 3°5.08 -999 3.237243 31.259207 39.905999
2003-04-10 07:58:24 51°21.83 3°5.11 -999 3.237559 31.262586 41.288084
2003-04-10 07:58:28 51°21.83 3°5.13 -999 3.237348 31.259574 42.366785
2003-04-10 07:58:34 51°21.84 3°5.17 -999 3.237348 31.259574 42.366785
2003-04-10 07:58:38 51°21.85 3°5.19 -999 3.238085 31.266698 43.479195
2003-04-10 07:58:44 51°21.85 3°5.23 -999 3.236611 31.250173 44.557896
2003-04-10 07:58:48 51°21.86 3°5.25 -999 3.238822 31.273063 44.659024
2003-04-10 07:58:54 51°21.87 3°5.28 -999 3.238401 31.272355 45.198375
2003-04-10 07:58:58 51°21.87 3°5.31 -999 3.240402 31.292235 44.962409
2003-04-10 07:59:04 51°21.88 3°5.34 -999 3.240402 31.292235 44.962409
2003-04-10 07:59:08 51°21.89 3°5.37 -999 3.238717 31.274215 44.625315
2003-04-10 07:59:14 51°21.89 3°5.4 -999 3.238928 31.275708 44.052255
2003-04-10 07:59:18 51°21.9 3°5.42 -999 3.238612 31.272329 43.647742
2003-04-10 07:59:24 51°21.91 3°5.46 -999 3.238928 31.277986 42.872426
2003-04-10 07:59:28 51°21.91 3°5.48 -999 3.238612 31.277646 42.333076
2003-04-10 07:59:34 51°21.92 3°5.52 -999 3.238612 31.277646 42.333076
2003-04-10 07:59:38 51°21.92 3°5.54 -999 3.239033 31.277593 41.591469
2003-04-10 07:59:44 51°21.93 3°5.57 -999 3.238717 31.276493 41.321794
2003-04-10 07:59:48 51°21.94 3°5.6 -999 3.238506 31.27576 40.917281
2003-04-10 07:59:54 51°21.94 3°5.63 -999 3.23798 31.269369 40.310512
2003-04-10 07:59:58 51°21.95 3°5.65 -999 3.237559 31.262586 40.344221
2003-04-10 08:00:04 51°21.96 3°5.69 -999 3.237559 31.262586 40.344221
2003-04-10 08:00:08 51°21.96 3°5.71 -999 3.239349 31.285531 39.939708
2003-04-10 08:00:14 51°21.97 3°5.75 -999 3.237769 31.268635 39.703742
2003-04-10 08:00:18 51°21.97 3°5.77 -999 3.239033 31.283671 39.198101
2003-04-10 08:00:24 51°21.98 3°5.8 -999 3.237559 31.26866 38.827298
2003-04-10 08:00:28 51°21.99 3°5.83 -999 3.239138 31.284797 38.1194
2003-04-10 08:00:34 51°21.99 3°5.86 -999 3.239138 31.284797 38.1194
2003-04-10 08:00:38 51°22 3°5.89 -999 3.23798 31.273926 37.276665
2003-04-10 08:00:44 51°22.01 3°5.92 -999 3.23977 31.293077 36.973281
2003-04-10 08:00:48 51°22.01 3°5.94 -999 3.238612 31.281444 36.501349
2003-04-10 08:00:54 51°22.02 3°5.98 -999 3.237243 31.266041 36.063127
2003-04-10 08:00:58 51°22.02 3°6 -999 3.239349 31.28781 35.456358
2003-04-10 08:01:04 51°22.03 3°6.04 -999 3.239349 31.28781 35.456358
2003-04-10 08:01:08 51°22.04 3°6.06 -999 3.239349 31.28781 34.883298
2003-04-10 08:01:14 51°22.05 3°6.09 -999 3.239454 31.288937 34.950717
2003-04-10 08:01:18 51°22.05 3°6.12 -999 3.23798 31.273166 34.917007
2003-04-10 08:01:24 51°22.06 3°6.15 -999 3.238191 31.274659 34.815879
2003-04-10 08:01:28 51°22.06 3°6.17 -999 3.239454 31.287417 34.849589
2003-04-10 08:01:34 51°22.07 3°6.21 -999 3.239454 31.287417 34.849589
2003-04-10 08:01:38 51°22.08 3°6.23 -999 3.239981 31.29533 34.950717
2003-04-10 08:01:44 51°22.08 3°6.27 -999 3.23798 31.273926 34.917007
2003-04-10 08:01:48 51°22.09 3°6.29 -999 3.240191 31.299103 34.815879
2003-04-10 08:01:54 51°22.1 3°6.32 -999 3.239875 31.293443 34.883298
2003-04-10 08:01:58 51°22.1 3°6.35 -999 3.239875 31.291923 35.051845
2003-04-10 08:02:04 51°22.11 3°6.38 -999 3.239875 31.291923 35.051845
2003-04-10 08:02:08 51°22.11 3°6.4 -999 3.240402 31.299076 34.815879
2003-04-10 08:02:14 51°22.12 3°6.44 -999 3.241139 31.306201 34.815879
2003-04-10 08:02:18 51°22.13 3°6.46 -999 3.240823 31.302822 34.917007
2003-04-10 08:02:24 51°22.13 3°6.5 -999 3.241455 31.311102 34.74846
2003-04-10 08:02:28 51°22.14 3°6.52 -999 3.240613 31.30285 34.815879
2003-04-10 08:02:34 51°22.15 3°6.55 -999 3.240613 31.30285 34.815879
2003-04-10 08:02:38 51°22.15 3°6.58 -999 3.240929 31.309272 34.141691
2003-04-10 08:02:44 51°22.16 3°6.61 -999 3.241139 31.310004 32.759606
2003-04-10 08:02:48 51°22.17 3°6.63 -999 3.240718 31.307018 31.984289
2003-04-10 08:02:54 51°22.17 3°6.67 -999 3.240402 31.30592 30.770751
2003-04-10 08:02:58 51°22.18 3°6.69 -999 3.238717 31.289411 30.197691
2003-04-10 08:03:04 51°22.19 3°6.73 -999 3.238717 31.289411 30.197691
2003-04-10 08:03:08 51°22.19 3°6.75 -999 3.238191 31.283778 29.220118
2003-04-10 08:03:14 51°22.2 3°6.78 -999 3.237875 31.280397 28.57964
2003-04-10 08:03:18 51°22.2 3°6.81 -999 3.236295 31.262737 28.00658
2003-04-10 08:03:24 51°22.21 3°6.84 -999 3.235242 31.250712 27.602067
2003-04-10 08:03:28 51°22.22 3°6.86 -999 3.234505 31.241309 27.972871
2003-04-10 08:03:34 51°22.23 3°6.9 -999 3.234505 31.241309 27.972871
2003-04-10 08:03:38 51°22.23 3°6.92 -999 3.233557 31.226619 28.00658
2003-04-10 08:03:44 51°22.24 3°6.95 -999 3.233347 31.222092 28.512221
2003-04-10 08:03:48 51°22.24 3°6.98 -999 3.232399 31.205893 29.11899
2003-04-10 08:03:54 51°22.25 3°7.01 -999 3.231767 31.195351 29.590922
2003-04-10 08:03:58 51°22.26 3°7.03 -999 3.229871 31.172062 29.658341
2003-04-10 08:04:04 51°22.26 3°7.07 -999 3.229871 31.172062 29.658341
2003-04-10 08:04:08 51°22.27 3°7.09 -999 3.230608 31.176913 29.995435
2003-04-10 08:04:14 51°22.28 3°7.12 -999 3.228397 31.150256 29.793178
2003-04-10 08:04:18 51°22.28 3°7.15 -999 3.229345 31.155846 29.826888
2003-04-10 08:04:24 51°22.29 3°7.18 -999 3.22945 31.156971 29.321247
2003-04-10 08:04:28 51°22.29 3°7.2 -999 3.229239 31.148674 29.253828
2003-04-10 08:04:34 51°22.3 3°7.24 -999 3.229239 31.148674 29.253828
2003-04-10 08:04:38 51°22.31 3°7.26 -999 3.228923 31.145299 29.186409
2003-04-10 08:04:44 51°22.31 3°7.29 -999 3.228502 31.140045 29.220118
2003-04-10 08:04:48 51°22.32 3°7.32 -999 3.228713 31.137762 29.186409
2003-04-10 08:04:54 51°22.33 3°7.35 -999 3.228081 31.128749 29.253828
2003-04-10 08:04:58 51°22.33 3°7.37 -999 3.225975 31.105506 29.658341
2003-04-10 08:05:04 51°22.34 3°7.41 -999 3.225975 31.105506 29.658341
2003-04-10 08:05:08 51°22.34 3°7.43 -999 3.228502 31.131737 29.928016
2003-04-10 08:05:14 51°22.35 3°7.46 -999 3.225238 31.09311 30.467366
2003-04-10 08:05:18 51°22.36 3°7.49 -999 3.227344 31.114085 31.141554
2003-04-10 08:05:24 51°22.36 3°7.52 -999 3.227765 31.118582 31.343811
2003-04-10 08:05:28 51°22.37 3°7.54 -999 3.227976 31.119321 31.916871
2003-04-10 08:05:34 51°22.38 3°7.58 -999 3.227976 31.119321 31.916871
2003-04-10 08:05:38 51°22.38 3°7.6 -999 3.227238 31.111452 32.388802
2003-04-10 08:05:44 51°22.39 3°7.63 -999 3.22766 31.113686 32.692187
2003-04-10 08:05:48 51°22.39 3°7.66 -999 3.229344 31.130917 33.265247
2003-04-10 08:05:54 51°22.4 3°7.69 -999 3.228502 31.118906 33.433794
2003-04-10 08:05:58 51°22.41 3°7.71 -999 3.227554 31.107282 33.703469
2003-04-10 08:06:04 51°22.42 3°7.75 -999 3.227554 31.107282 33.703469
2003-04-10 08:06:08 51°22.42 3°7.77 -999 3.22787 31.109899 33.973144
2003-04-10 08:06:14 51°22.43 3°7.8 -999 3.228186 31.111009 34.242819
2003-04-10 08:06:18 51°22.43 3°7.83 -999 3.228081 31.109131 34.579913
2003-04-10 08:06:24 51°22.44 3°7.86 -999 3.228607 31.113241 34.78217
2003-04-10 08:06:28 51°22.44 3°7.88 -999 3.228607 31.112487 34.74846
2003-04-10 08:06:34 51°22.45 3°7.92 -999 3.228607 31.112487 34.74846
2003-04-10 08:06:38 51°22.46 3°7.94 -999 3.228186 31.105731 35.051845
2003-04-10 08:06:44 51°22.46 3°7.97 -999 3.227975 31.104237 34.917007
2003-04-10 08:06:48 51°22.47 3°8 -999 3.229239 31.116213 35.591195
2003-04-10 08:06:54 51°22.48 3°8.03 -999 3.227344 31.099757 36.231674
2003-04-10 08:06:58 51°22.48 3°8.05 -999 3.228397 31.110994 37.0407
2003-04-10 08:07:04 51°22.49 3°8.09 -999 3.228397 31.110994 37.0407
2003-04-10 08:07:08 51°22.49 3°8.11 -999 3.228502 31.115889 37.445212
2003-04-10 08:07:14 51°22.5 3°8.15 -999 3.229134 31.121878 37.849725
2003-04-10 08:07:18 51°22.5 3°8.17 -999 3.229976 31.130869 37.782306
2003-04-10 08:07:24 51°22.5 3°8.21 -999 3.228607 31.117012 38.018272
2003-04-10 08:07:28 51°22.51 3°8.23 -999 3.228923 31.121893 37.782306
2003-04-10 08:07:34 51°22.51 3°8.27 -999 3.228923 31.121893 37.782306
2003-04-10 08:07:38 51°22.52 3°8.29 -999 3.228818 31.120015 37.310375
2003-04-10 08:07:44 51°22.52 3°8.32 -999 3.227449 31.10465 36.939571
2003-04-10 08:07:48 51°22.52 3°8.35 -999 3.228818 31.11926 36.265383
2003-04-10 08:07:54 51°22.53 3°8.38 -999 3.226817 31.097907 35.759742
2003-04-10 08:07:58 51°22.53 3°8.41 -999 3.225764 31.086669 35.456358
2003-04-10 08:08:04 51°22.53 3°8.44 -999 3.225764 31.086669 35.456358
2003-04-10 08:08:08 51°22.54 3°8.47 -999 3.228818 31.11926 34.950717
2003-04-10 08:08:14 51°22.54 3°8.5 -999 3.225764 31.086669 34.681042
2003-04-10 08:08:18 51°22.54 3°8.53 -999 3.228397 31.117028 34.613623
2003-04-10 08:08:24 51°22.55 3°8.56 -999 3.228186 31.114025 34.343947
2003-04-10 08:08:28 51°22.55 3°8.59 -999 3.225975 31.089671 33.298956
2003-04-10 08:08:34 51°22.55 3°8.62 -999 3.225975 31.089671 33.298956
2003-04-10 08:08:38 51°22.56 3°8.65 -999 3.227344 31.105788 32.725896
2003-04-10 08:08:44 51°22.56 3°8.68 -999 3.225554 31.086683 32.253965
2003-04-10 08:08:48 51°22.56 3°8.7 -999 3.225027 31.081817 31.41123
2003-04-10 08:08:54 51°22.57 3°8.74 -999 3.227238 31.107681 30.905589
2003-04-10 08:08:58 51°22.57 3°8.76 -999 3.223974 31.072839 30.433657
2003-04-10 08:09:04 51°22.57 3°8.8 -999 3.223974 31.072839 30.433657
2003-04-10 08:09:08 51°22.58 3°8.82 -999 3.226607 31.099429 29.961725
2003-04-10 08:09:14 51°22.58 3°8.86 -999 3.225553 31.085929 29.894306
2003-04-10 08:09:18 51°22.58 3°8.88 -999 3.226922 31.105063 29.253828
2003-04-10 08:09:24 51°22.59 3°8.92 -999 3.224395 31.078842 28.714477
2003-04-10 08:09:28 51°22.59 3°8.94 -999 3.225132 31.085202 28.54593
2003-04-10 08:09:34 51°22.6 3°8.98 -999 3.225132 31.085202 28.54593
2003-04-10 08:09:38 51°22.6 3°9 -999 3.224395 31.080349 28.107708
2003-04-10 08:09:44 51°22.6 3°9.04 -999 3.223026 31.063478 27.703195
2003-04-10 08:09:48 51°22.61 3°9.06 -999 3.221341 31.045498 27.568358
2003-04-10 08:09:54 51°22.61 3°9.1 -999 3.221447 31.047374 27.231264
2003-04-10 08:09:58 51°22.61 3°9.12 -999 3.221657 31.048116 27.029007
2003-04-10 08:10:04 51°22.62 3°9.16 -999 3.221657 31.048116 27.029007
2003-04-10 08:10:08 51°22.62 3°9.18 -999 3.219446 31.020759 26.725623
2003-04-10 08:10:14 51°22.62 3°9.22 -999 3.220183 31.031633 26.725623
2003-04-10 08:10:18 51°22.63 3°9.24 -999 3.222184 31.049218 26.523366
2003-04-10 08:10:24 51°22.63 3°9.27 -999 3.222605 31.055971 26.085144
2003-04-10 08:10:28 51°22.63 3°9.3 -999 3.221868 31.047353 25.984016